www.cux-wetter.de
Wetterdaten: Donnerstag, 31.01.2008
Datum Zeit Temp. A. Feuchte A. Luftdruck Regen Wind Richtung Richtung Sonnenschein Solar Taupunkt Windchill Windben
31.01.2008 00:03 3,8 C 91 % 1018,5 hPa 0,0 l/m 17,3 km/h (3 Bft) W 265 0 min 0 W/m 2,5 C -3,5 C 17,3 km/h (3 Bft)
31.01.2008 00:05 3,7 C 92 % 1018,5 hPa 0,0 l/m 21,8 km/h (4 Bft) W 265 0 min 0 W/m 2,5 C -5,6 C 21,8 km/h (4 Bft)
31.01.2008 00:08 3,7 C 92 % 1019,5 hPa 0,0 l/m 19,1 km/h (3 Bft) W 260 0 min 0 W/m 2,5 C -4,5 C 19,1 km/h (3 Bft)
31.01.2008 00:11 3,7 C 92 % 1019,5 hPa 0,0 l/m 19,1 km/h (3 Bft) W 260 0 min 0 W/m 2,5 C -4,5 C 19,1 km/h (3 Bft)
31.01.2008 00:14 3,6 C 92 % 1019,5 hPa 0,0 l/m 19,0 km/h (3 Bft) W-SW 255 0 min 0 W/m 2,4 C -4,6 C 19,0 km/h (3 Bft)
31.01.2008 00:17 3,6 C 93 % 1018,5 hPa 0,0 l/m 19,0 km/h (3 Bft) W-SW 255 0 min 0 W/m 2,6 C -4,6 C 19,0 km/h (3 Bft)
31.01.2008 00:20 3,6 C 93 % 1019,5 hPa 0,0 l/m 23,3 km/h (4 Bft) W 260 0 min 0 W/m 2,6 C -6,3 C 23,3 km/h (4 Bft)
31.01.2008 00:23 3,6 C 93 % 1019,5 hPa 0,0 l/m 20,4 km/h (4 Bft) W 260 0 min 0 W/m 2,6 C -5,1 C 20,4 km/h (4 Bft)
31.01.2008 00:26 3,6 C 93 % 1018,5 hPa 0,0 l/m 17,9 km/h (3 Bft) W 260 0 min 0 W/m 2,6 C -4,1 C 17,9 km/h (3 Bft)
31.01.2008 00:30 3,6 C 93 % 1018,5 hPa 0,0 l/m 17,1 km/h (3 Bft) W 265 0 min 0 W/m 2,6 C -3,7 C 17,1 km/h (3 Bft)
31.01.2008 00:33 3,7 C 93 % 1018,5 hPa 0,0 l/m 19,1 km/h (3 Bft) W 260 0 min 0 W/m 2,7 C -4,5 C 19,1 km/h (3 Bft)
31.01.2008 00:36 3,7 C 92 % 1018,5 hPa 0,0 l/m 15,5 km/h (3 Bft) W 265 0 min 0 W/m 2,5 C -2,8 C 15,5 km/h (3 Bft)
31.01.2008 00:39 3,7 C 92 % 1018,5 hPa 0,0 l/m 20,2 km/h (4 Bft) W 280 0 min 0 W/m 2,5 C -4,9 C 20,2 km/h (4 Bft)
31.01.2008 00:41 3,8 C 92 % 1018,5 hPa 0,0 l/m 20,7 km/h (4 Bft) W-NW 285 0 min 0 W/m 2,6 C -5,0 C 20,7 km/h (4 Bft)
31.01.2008 00:44 3,9 C 92 % 1018,5 hPa 0,0 l/m 18,9 km/h (3 Bft) W 275 0 min 0 W/m 2,7 C -4,1 C 18,9 km/h (3 Bft)
31.01.2008 00:47 3,8 C 91 % 1018,5 hPa 0,0 l/m 25,5 km/h (4 Bft) W 270 0 min 0 W/m 2,5 C -6,7 C 25,5 km/h (4 Bft)
31.01.2008 00:50 3,8 C 91 % 1018,5 hPa 0,0 l/m 24,1 km/h (4 Bft) W 270 0 min 0 W/m 2,5 C -6,3 C 24,1 km/h (4 Bft)
31.01.2008 00:53 3,7 C 91 % 1018,5 hPa 0,0 l/m 24,1 km/h (4 Bft) W 270 0 min 0 W/m 2,4 C -6,4 C 24,1 km/h (4 Bft)
31.01.2008 00:56 3,6 C 91 % 1018,5 hPa 0,0 l/m 24,6 km/h (4 Bft) W 265 0 min 0 W/m 2,3 C -6,7 C 24,6 km/h (4 Bft)
31.01.2008 00:59 3,6 C 91 % 1018,5 hPa 0,0 l/m 27,5 km/h (5 Bft) W 265 0 min 0 W/m 2,3 C -7,6 C 27,5 km/h (5 Bft)
31.01.2008 01:03 3,6 C 91 % 1018,5 hPa 0,0 l/m 22,1 km/h (4 Bft) W 260 0 min 0 W/m 2,3 C -5,8 C 22,1 km/h (4 Bft)
31.01.2008 01:06 3,5 C 91 % 1018,5 hPa 0,0 l/m 22,4 km/h (4 Bft) W 265 0 min 0 W/m 2,2 C -6,1 C 22,4 km/h (4 Bft)
31.01.2008 01:09 3,5 C 91 % 1018,5 hPa 0,0 l/m 22,5 km/h (4 Bft) W 260 0 min 0 W/m 2,2 C -6,1 C 22,5 km/h (4 Bft)
31.01.2008 01:12 3,5 C 91 % 1018,5 hPa 0,0 l/m 24,0 km/h (4 Bft) W 270 0 min 0 W/m 2,2 C -6,6 C 24,0 km/h (4 Bft)
31.01.2008 01:15 3,4 C 91 % 1018,5 hPa 0,0 l/m 21,0 km/h (4 Bft) W 260 0 min 0 W/m 2,1 C -5,6 C 21,0 km/h (4 Bft)
31.01.2008 01:17 3,3 C 91 % 1018,5 hPa 0,0 l/m 21,5 km/h (4 Bft) W 265 0 min 0 W/m 2,0 C -6,0 C 21,5 km/h (4 Bft)
31.01.2008 01:20 3,3 C 91 % 1018,5 hPa 0,0 l/m 18,3 km/h (3 Bft) W 260 0 min 0 W/m 2,0 C -4,6 C 18,3 km/h (3 Bft)
31.01.2008 01:23 3,2 C 91 % 1018,5 hPa 0,0 l/m 23,5 km/h (4 Bft) W 275 0 min 0 W/m 1,9 C -6,9 C 23,5 km/h (4 Bft)
31.01.2008 01:26 3,2 C 91 % 1018,5 hPa 0,0 l/m 21,1 km/h (4 Bft) W 265 0 min 0 W/m 1,9 C -5,9 C 21,1 km/h (4 Bft)
31.01.2008 01:29 3,2 C 91 % 1018,5 hPa 0,0 l/m 17,3 km/h (3 Bft) W 260 0 min 0 W/m 1,9 C -4,3 C 17,3 km/h (3 Bft)
31.01.2008 01:32 3,1 C 91 % 1018,5 hPa 0,0 l/m 22,3 km/h (4 Bft) W-SW 255 0 min 0 W/m 1,8 C -6,5 C 22,3 km/h (4 Bft)
31.01.2008 01:35 3,1 C 92 % 1018,5 hPa 0,0 l/m 23,8 km/h (4 Bft) W 260 0 min 0 W/m 1,9 C -7,1 C 23,8 km/h (4 Bft)
31.01.2008 01:38 3,0 C 92 % 1018,5 hPa 0,0 l/m 19,3 km/h (3 Bft) W 260 0 min 0 W/m 1,8 C -5,5 C 19,3 km/h (3 Bft)
31.01.2008 01:41 3,0 C 92 % 1018,5 hPa 0,0 l/m 19,3 km/h (3 Bft) W 260 0 min 0 W/m 1,8 C -5,5 C 19,3 km/h (3 Bft)
31.01.2008 01:44 3,0 C 92 % 1018,5 hPa 0,0 l/m 27,8 km/h (5 Bft) W 260 0 min 0 W/m 1,8 C -8,6 C 27,8 km/h (5 Bft)
31.01.2008 01:47 3,1 C 92 % 1018,5 hPa 0,0 l/m 25,3 km/h (4 Bft) W 260 0 min 0 W/m 1,9 C -7,6 C 25,3 km/h (4 Bft)
31.01.2008 01:50 3,1 C 92 % 1018,5 hPa 0,0 l/m 24,0 km/h (4 Bft) W-SW 255 0 min 0 W/m 1,9 C -7,2 C 24,0 km/h (4 Bft)
31.01.2008 01:53 3,2 C 92 % 1018,5 hPa 0,0 l/m 23,8 km/h (4 Bft) W 260 0 min 0 W/m 2,0 C -7,0 C 23,8 km/h (4 Bft)
31.01.2008 01:56 3,2 C 92 % 1018,5 hPa 0,0 l/m 23,1 km/h (4 Bft) W-SW 255 0 min 0 W/m 2,0 C -6,7 C 23,1 km/h (4 Bft)
31.01.2008 01:59 3,3 C 91 % 1018,5 hPa 0,0 l/m 23,8 km/h (4 Bft) W-SW 255 0 min 0 W/m 2,0 C -6,8 C 23,8 km/h (4 Bft)
31.01.2008 02:02 3,3 C 91 % 1018,5 hPa 0,0 l/m 23,8 km/h (4 Bft) W-SW 255 0 min 0 W/m 2,0 C -6,8 C 23,8 km/h (4 Bft)
31.01.2008 02:05 3,3 C 91 % 1018,5 hPa 0,0 l/m 28,9 km/h (5 Bft) W 260 0 min 0 W/m 2,0 C -8,5 C 28,9 km/h (5 Bft)
31.01.2008 02:08 3,3 C 91 % 1018,5 hPa 0,0 l/m 23,5 km/h (4 Bft) W 260 0 min 0 W/m 2,0 C -6,7 C 23,5 km/h (4 Bft)
31.01.2008 02:11 3,3 C 91 % 1018,5 hPa 0,0 l/m 28,2 km/h (5 Bft) W-SW 255 0 min 0 W/m 2,0 C -8,3 C 28,2 km/h (5 Bft)
31.01.2008 02:14 3,2 C 91 % 1018,5 hPa 0,0 l/m 28,0 km/h (5 Bft) W-SW 255 0 min 0 W/m 1,9 C -8,3 C 28,0 km/h (5 Bft)
31.01.2008 02:17 3,2 C 91 % 1018,5 hPa 0,0 l/m 21,0 km/h (4 Bft) W-SW 250 0 min 0 W/m 1,9 C -5,9 C 21,0 km/h (4 Bft)
31.01.2008 02:20 3,1 C 91 % 1018,5 hPa 0,0 l/m 23,5 km/h (4 Bft) W-SW 255 0 min 0 W/m 1,8 C -7,0 C 23,5 km/h (4 Bft)
31.01.2008 02:23 3,1 C 92 % 1018,5 hPa 0,0 l/m 22,3 km/h (4 Bft) W-SW 255 0 min 0 W/m 1,9 C -6,5 C 22,3 km/h (4 Bft)
31.01.2008 02:26 3,0 C 92 % 1018,5 hPa 0,0 l/m 25,3 km/h (4 Bft) W 265 0 min 0 W/m 1,8 C -7,8 C 25,3 km/h (4 Bft)
31.01.2008 02:29 3,0 C 92 % 1018,5 hPa 0,0 l/m 26,3 km/h (4 Bft) W-SW 255 0 min 0 W/m 1,8 C -8,1 C 26,3 km/h (4 Bft)
31.01.2008 02:32 3,0 C 92 % 1018,5 hPa 0,0 l/m 22,5 km/h (4 Bft) W-SW 255 0 min 0 W/m 1,8 C -6,8 C 22,5 km/h (4 Bft)
31.01.2008 02:35 3,0 C 92 % 1018,5 hPa 0,0 l/m 22,3 km/h (4 Bft) W 260 0 min 0 W/m 1,8 C -6,7 C 22,3 km/h (4 Bft)
31.01.2008 02:38 3,1 C 92 % 1018,5 hPa 0,0 l/m 24,3 km/h (4 Bft) W 265 0 min 0 W/m 1,9 C -7,3 C 24,3 km/h (4 Bft)
31.01.2008 02:41 3,1 C 92 % 1018,5 hPa 0,0 l/m 22,7 km/h (4 Bft) W-SW 255 0 min 0 W/m 1,9 C -6,7 C 22,7 km/h (4 Bft)
31.01.2008 02:45 3,1 C 92 % 1018,5 hPa 0,0 l/m 25,6 km/h (4 Bft) W 260 0 min 0 W/m 1,9 C -7,7 C 25,6 km/h (4 Bft)
31.01.2008 02:48 3,1 C 92 % 1018,5 hPa 0,0 l/m 21,5 km/h (4 Bft) W-SW 255 0 min 0 W/m 1,9 C -6,2 C 21,5 km/h (4 Bft)
31.01.2008 02:51 3,1 C 92 % 1018,5 hPa 0,0 l/m 18,6 km/h (3 Bft) W 260 0 min 0 W/m 1,9 C -5,0 C 18,6 km/h (3 Bft)
31.01.2008 02:54 3,1 C 91 % 1018,5 hPa 0,0 l/m 18,6 km/h (3 Bft) W 260 0 min 0 W/m 1,8 C -5,0 C 18,6 km/h (3 Bft)
31.01.2008 02:56 3,1 C 91 % 1018,5 hPa 0,0 l/m 24,8 km/h (4 Bft) W-SW 255 0 min 0 W/m 1,8 C -7,5 C 24,8 km/h (4 Bft)
31.01.2008 02:59 3,1 C 91 % 1018,5 hPa 0,0 l/m 24,8 km/h (4 Bft) W-SW 250 0 min 0 W/m 1,8 C -7,5 C 24,8 km/h (4 Bft)
31.01.2008 03:02 3,1 C 91 % 1018,5 hPa 0,0 l/m 23,7 km/h (4 Bft) W 260 0 min 0 W/m 1,8 C -7,1 C 23,7 km/h (4 Bft)
31.01.2008 03:05 3,1 C 91 % 1017,5 hPa 0,0 l/m 24,5 km/h (4 Bft) W-SW 255 0 min 0 W/m 1,8 C -7,3 C 24,5 km/h (4 Bft)
31.01.2008 03:08 3,1 C 91 % 1018,5 hPa 0,0 l/m 23,5 km/h (4 Bft) W 260 0 min 0 W/m 1,8 C -7,0 C 23,5 km/h (4 Bft)
31.01.2008 03:11 3,1 C 91 % 1018,5 hPa 0,0 l/m 27,9 km/h (5 Bft) W-SW 255 0 min 0 W/m 1,8 C -8,4 C 27,9 km/h (5 Bft)
31.01.2008 03:15 3,1 C 91 % 1017,5 hPa 0,0 l/m 30,6 km/h (5 Bft) W-SW 255 0 min 0 W/m 1,8 C -9,2 C 30,6 km/h (5 Bft)
31.01.2008 03:18 3,1 C 91 % 1017,5 hPa 0,0 l/m 26,7 km/h (4 Bft) W-SW 255 0 min 0 W/m 1,8 C -8,1 C 26,7 km/h (4 Bft)
31.01.2008 03:21 3,2 C 91 % 1017,5 hPa 0,0 l/m 19,8 km/h (3 Bft) W-SW 250 0 min 0 W/m 1,9 C -5,4 C 19,8 km/h (3 Bft)
31.01.2008 03:24 3,2 C 91 % 1017,5 hPa 0,0 l/m 22,1 km/h (4 Bft) W-SW 250 0 min 0 W/m 1,9 C -6,3 C 22,1 km/h (4 Bft)
31.01.2008 03:26 3,2 C 91 % 1017,5 hPa 0,0 l/m 21,6 km/h (4 Bft) W-SW 250 0 min 0 W/m 1,9 C -6,1 C 21,6 km/h (4 Bft)
31.01.2008 03:29 3,3 C 91 % 1017,5 hPa 0,0 l/m 18,3 km/h (3 Bft) W-SW 250 0 min 0 W/m 2,0 C -4,6 C 18,3 km/h (3 Bft)
31.01.2008 03:32 3,2 C 91 % 1017,5 hPa 0,0 l/m 19,5 km/h (3 Bft) W-SW 255 0 min 0 W/m 1,9 C -5,3 C 19,5 km/h (3 Bft)
31.01.2008 03:35 3,1 C 91 % 1017,5 hPa 0,0 l/m 19,4 km/h (3 Bft) W-SW 250 0 min 0 W/m 1,8 C -5,4 C 19,4 km/h (3 Bft)
31.01.2008 03:38 3,1 C 91 % 1017,5 hPa 0,0 l/m 22,1 km/h (4 Bft) W-SW 255 0 min 0 W/m 1,8 C -6,5 C 22,1 km/h (4 Bft)
31.01.2008 03:41 3,1 C 91 % 1017,5 hPa 0,0 l/m 22,9 km/h (4 Bft) W-SW 250 0 min 0 W/m 1,8 C -6,8 C 22,9 km/h (4 Bft)
31.01.2008 03:44 3,1 C 92 % 1017,5 hPa 0,0 l/m 22,0 km/h (4 Bft) W-SW 250 0 min 0 W/m 1,9 C -6,4 C 22,0 km/h (4 Bft)
31.01.2008 03:47 3,1 C 92 % 1017,5 hPa 0,0 l/m 21,4 km/h (4 Bft) W-SW 250 0 min 0 W/m 1,9 C -6,2 C 21,4 km/h (4 Bft)
31.01.2008 03:50 3,2 C 92 % 1017,5 hPa 0,0 l/m 22,8 km/h (4 Bft) W-SW 250 0 min 0 W/m 2,0 C -6,6 C 22,8 km/h (4 Bft)
31.01.2008 03:53 3,2 C 92 % 1017,5 hPa 0,0 l/m 17,0 km/h (3 Bft) W-SW 250 0 min 0 W/m 2,0 C -4,1 C 17,0 km/h (3 Bft)
31.01.2008 03:56 3,2 C 92 % 1017,5 hPa 0,0 l/m 20,1 km/h (4 Bft) W-SW 250 0 min 0 W/m 2,0 C -5,5 C 20,1 km/h (4 Bft)
31.01.2008 03:59 3,2 C 92 % 1017,5 hPa 0,0 l/m 23,5 km/h (4 Bft) W-SW 250 0 min 0 W/m 2,0 C -6,9 C 23,5 km/h (4 Bft)
31.01.2008 04:02 3,2 C 92 % 1017,5 hPa 0,0 l/m 22,9 km/h (4 Bft) W-SW 250 0 min 0 W/m 2,0 C -6,6 C 22,9 km/h (4 Bft)
31.01.2008 04:05 3,2 C 92 % 1017,5 hPa 0,0 l/m 30,7 km/h (5 Bft) W-SW 255 0 min 0 W/m 2,0 C -9,1 C 30,7 km/h (5 Bft)
31.01.2008 04:08 3,2 C 92 % 1017,5 hPa 0,0 l/m 23,1 km/h (4 Bft) W-SW 250 0 min 0 W/m 2,0 C -6,7 C 23,1 km/h (4 Bft)
31.01.2008 04:11 3,2 C 91 % 1017,5 hPa 0,0 l/m 23,3 km/h (4 Bft) W-SW 250 0 min 0 W/m 1,9 C -6,8 C 23,3 km/h (4 Bft)
31.01.2008 04:14 3,1 C 91 % 1017,5 hPa 0,0 l/m 25,7 km/h (4 Bft) W-SW 255 0 min 0 W/m 1,8 C -7,8 C 25,7 km/h (4 Bft)
31.01.2008 04:17 3,0 C 91 % 1017,5 hPa 0,0 l/m 22,7 km/h (4 Bft) W-SW 250 0 min 0 W/m 1,7 C -6,8 C 22,7 km/h (4 Bft)
31.01.2008 04:20 2,9 C 91 % 1017,5 hPa 0,0 l/m 24,5 km/h (4 Bft) W-SW 250 0 min 0 W/m 1,6 C -7,6 C 24,5 km/h (4 Bft)
31.01.2008 04:23 2,8 C 91 % 1017,5 hPa 0,0 l/m 28,6 km/h (5 Bft) W-SW 250 0 min 0 W/m 1,5 C -9,1 C 28,6 km/h (5 Bft)
31.01.2008 04:26 2,7 C 92 % 1016,5 hPa 0,0 l/m 27,7 km/h (5 Bft) W-SW 250 0 min 0 W/m 1,5 C -8,9 C 27,7 km/h (5 Bft)
31.01.2008 04:29 2,7 C 92 % 1016,5 hPa 0,0 l/m 22,6 km/h (4 Bft) W-SW 250 0 min 0 W/m 1,5 C -7,2 C 22,6 km/h (4 Bft)
31.01.2008 04:32 2,6 C 92 % 1016,5 hPa 0,0 l/m 24,5 km/h (4 Bft) W-SW 245 0 min 0 W/m 1,4 C -8,0 C 24,5 km/h (4 Bft)
31.01.2008 04:35 2,5 C 92 % 1016,5 hPa 0,0 l/m 24,5 km/h (4 Bft) W-SW 245 0 min 0 W/m 1,3 C -8,2 C 24,5 km/h (4 Bft)
31.01.2008 04:38 2,5 C 92 % 1016,5 hPa 0,0 l/m 15,1 km/h (3 Bft) W-SW 250 0 min 0 W/m 1,3 C -4,0 C 15,1 km/h (3 Bft)
31.01.2008 04:42 2,4 C 92 % 1016,5 hPa 0,0 l/m 15,7 km/h (3 Bft) W-SW 240 0 min 0 W/m 1,2 C -4,5 C 15,7 km/h (3 Bft)
31.01.2008 04:45 2,4 C 93 % 1016,5 hPa 0,0 l/m 17,4 km/h (3 Bft) W-SW 240 0 min 0 W/m 1,4 C -5,3 C 17,4 km/h (3 Bft)
31.01.2008 04:48 2,3 C 93 % 1016,5 hPa 0,0 l/m 24,7 km/h (4 Bft) W-SW 250 0 min 0 W/m 1,3 C -8,5 C 24,7 km/h (4 Bft)
31.01.2008 04:50 2,3 C 93 % 1016,5 hPa 0,0 l/m 17,9 km/h (3 Bft) W-SW 255 0 min 0 W/m 1,3 C -5,7 C 17,9 km/h (3 Bft)
31.01.2008 04:53 2,3 C 93 % 1016,5 hPa 0,0 l/m 19,0 km/h (3 Bft) W-SW 240 0 min 0 W/m 1,3 C -6,2 C 19,0 km/h (3 Bft)
31.01.2008 04:56 2,3 C 94 % 1016,5 hPa 0,0 l/m 17,5 km/h (3 Bft) W-SW 250 0 min 0 W/m 1,4 C -5,5 C 17,5 km/h (3 Bft)
31.01.2008 04:59 2,4 C 94 % 1016,5 hPa 0,0 l/m 20,2 km/h (4 Bft) W 260 0 min 0 W/m 1,5 C -6,6 C 20,2 km/h (4 Bft)
31.01.2008 05:03 2,4 C 94 % 1016,5 hPa 0,0 l/m 19,8 km/h (3 Bft) SW 235 0 min 0 W/m 1,5 C -6,4 C 19,8 km/h (3 Bft)
31.01.2008 05:06 2,4 C 94 % 1016,5 hPa 0,0 l/m 20,8 km/h (4 Bft) W-SW 250 0 min 0 W/m 1,5 C -6,9 C 20,8 km/h (4 Bft)
31.01.2008 05:09 2,5 C 94 % 1016,5 hPa 0,0 l/m 22,6 km/h (4 Bft) W-SW 245 0 min 0 W/m 1,6 C -7,5 C 22,6 km/h (4 Bft)
31.01.2008 05:12 2,5 C 94 % 1016,5 hPa 0,0 l/m 24,6 km/h (4 Bft) W-SW 250 0 min 0 W/m 1,6 C -8,2 C 24,6 km/h (4 Bft)
31.01.2008 05:14 2,5 C 94 % 1016,5 hPa 0,0 l/m 24,6 km/h (4 Bft) W-SW 250 0 min 0 W/m 1,6 C -8,2 C 24,6 km/h (4 Bft)
31.01.2008 05:17 2,6 C 94 % 1016,5 hPa 0,0 l/m 26,1 km/h (4 Bft) W-SW 245 0 min 0 W/m 1,7 C -8,6 C 26,1 km/h (4 Bft)
31.01.2008 05:20 2,6 C 94 % 1016,5 hPa 0,0 l/m 21,8 km/h (4 Bft) W-SW 250 0 min 0 W/m 1,7 C -7,0 C 21,8 km/h (4 Bft)
31.01.2008 05:23 2,7 C 94 % 1015,5 hPa 0,0 l/m 26,7 km/h (4 Bft) W-SW 250 0 min 0 W/m 1,8 C -8,6 C 26,7 km/h (4 Bft)
31.01.2008 05:26 2,7 C 94 % 1015,5 hPa 0,0 l/m 25,3 km/h (4 Bft) W-SW 250 0 min 0 W/m 1,8 C -8,2 C 25,3 km/h (4 Bft)
31.01.2008 05:29 2,7 C 94 % 1015,5 hPa 0,0 l/m 19,7 km/h (3 Bft) W-SW 250 0 min 0 W/m 1,8 C -6,0 C 19,7 km/h (3 Bft)
31.01.2008 05:32 2,7 C 94 % 1015,5 hPa 0,0 l/m 27,5 km/h (5 Bft) W-SW 250 0 min 0 W/m 1,8 C -8,9 C 27,5 km/h (5 Bft)
31.01.2008 05:35 2,7 C 93 % 1015,5 hPa 0,0 l/m 27,5 km/h (5 Bft) W-SW 250 0 min 0 W/m 1,7 C -8,9 C 27,5 km/h (5 Bft)
31.01.2008 05:38 2,7 C 93 % 1015,5 hPa 0,0 l/m 31,5 km/h (5 Bft) W-SW 250 0 min 0 W/m 1,7 C -10,0 C 31,5 km/h (5 Bft)
31.01.2008 05:41 2,6 C 93 % 1015,5 hPa 0,0 l/m 27,0 km/h (5 Bft) W-SW 250 0 min 0 W/m 1,6 C -8,9 C 27,0 km/h (5 Bft)
31.01.2008 05:44 2,6 C 93 % 1015,5 hPa 0,0 l/m 23,8 km/h (4 Bft) W-SW 250 0 min 0 W/m 1,6 C -7,8 C 23,8 km/h (4 Bft)
31.01.2008 05:47 2,6 C 93 % 1015,5 hPa 0,0 l/m 27,2 km/h (5 Bft) W-SW 250 0 min 0 W/m 1,6 C -8,9 C 27,2 km/h (5 Bft)
31.01.2008 05:50 2,6 C 93 % 1015,5 hPa 0,0 l/m 24,0 km/h (4 Bft) W-SW 250 0 min 0 W/m 1,6 C -7,8 C 24,0 km/h (4 Bft)
31.01.2008 05:54 2,5 C 93 % 1015,5 hPa 0,0 l/m 24,6 km/h (4 Bft) W-SW 240 0 min 0 W/m 1,5 C -8,2 C 24,6 km/h (4 Bft)
31.01.2008 05:57 2,5 C 93 % 1015,5 hPa 0,0 l/m 28,8 km/h (5 Bft) W-SW 250 0 min 0 W/m 1,5 C -9,5 C 28,8 km/h (5 Bft)
31.01.2008 06:00 2,5 C 93 % 1015,5 hPa 0,0 l/m 24,8 km/h (4 Bft) W-SW 250 0 min 0 W/m 1,5 C -8,3 C 24,8 km/h (4 Bft)
31.01.2008 06:02 2,5 C 93 % 1015,5 hPa 0,0 l/m 24,8 km/h (4 Bft) W-SW 250 0 min 0 W/m 1,5 C -8,3 C 24,8 km/h (4 Bft)
31.01.2008 06:05 2,5 C 93 % 1015,5 hPa 0,0 l/m 23,4 km/h (4 Bft) W-SW 245 0 min 0 W/m 1,5 C -7,8 C 23,4 km/h (4 Bft)
31.01.2008 06:08 2,5 C 93 % 1015,5 hPa 0,0 l/m 23,1 km/h (4 Bft) W-SW 240 0 min 0 W/m 1,5 C -7,6 C 23,1 km/h (4 Bft)
31.01.2008 06:11 2,5 C 93 % 1014,5 hPa 0,0 l/m 29,3 km/h (5 Bft) SW 230 0 min 0 W/m 1,5 C -9,7 C 29,3 km/h (5 Bft)
31.01.2008 06:14 2,4 C 93 % 1014,5 hPa 0,0 l/m 23,3 km/h (4 Bft) SW 230 0 min 0 W/m 1,4 C -7,9 C 23,3 km/h (4 Bft)
31.01.2008 06:18 2,3 C 93 % 1014,5 hPa 0,0 l/m 24,5 km/h (4 Bft) SW 230 0 min 0 W/m 1,3 C -8,4 C 24,5 km/h (4 Bft)
31.01.2008 06:21 2,3 C 93 % 1014,5 hPa 0,0 l/m 17,7 km/h (3 Bft) W-SW 240 0 min 0 W/m 1,3 C -5,6 C 17,7 km/h (3 Bft)
31.01.2008 06:24 2,2 C 93 % 1014,5 hPa 0,0 l/m 17,7 km/h (3 Bft) W-SW 240 0 min 0 W/m 1,2 C -5,7 C 17,7 km/h (3 Bft)
31.01.2008 06:26 2,1 C 93 % 1014,5 hPa 0,0 l/m 27,2 km/h (5 Bft) SW 225 0 min 0 W/m 1,1 C -9,6 C 27,2 km/h (5 Bft)
31.01.2008 06:29 2,0 C 93 % 1014,5 hPa 0,0 l/m 25,0 km/h (4 Bft) SW 225 0 min 0 W/m 1,0 C -9,0 C 25,0 km/h (4 Bft)
31.01.2008 06:32 2,0 C 93 % 1014,5 hPa 0,0 l/m 25,0 km/h (4 Bft) SW 225 0 min 0 W/m 1,0 C -9,0 C 25,0 km/h (4 Bft)
31.01.2008 06:35 1,9 C 93 % 1014,5 hPa 0,0 l/m 23,9 km/h (4 Bft) SW 230 0 min 0 W/m 0,9 C -8,7 C 23,9 km/h (4 Bft)
31.01.2008 06:38 1,9 C 93 % 1014,5 hPa 0,0 l/m 26,5 km/h (4 Bft) W-SW 245 0 min 0 W/m 0,9 C -9,7 C 26,5 km/h (4 Bft)
31.01.2008 06:41 2,0 C 93 % 1014,5 hPa 0,0 l/m 23,5 km/h (4 Bft) SW 235 0 min 0 W/m 1,0 C -8,5 C 23,5 km/h (4 Bft)
31.01.2008 06:44 2,0 C 93 % 1014,5 hPa 0,0 l/m 22,3 km/h (4 Bft) W-SW 250 0 min 0 W/m 1,0 C -8,0 C 22,3 km/h (4 Bft)
31.01.2008 06:47 2,0 C 93 % 1014,5 hPa 0,0 l/m 27,5 km/h (5 Bft) W-SW 240 0 min 0 W/m 1,0 C -9,8 C 27,5 km/h (5 Bft)
31.01.2008 06:50 2,1 C 93 % 1014,5 hPa 0,0 l/m 28,2 km/h (5 Bft) W-SW 245 0 min 0 W/m 1,1 C -9,9 C 28,2 km/h (5 Bft)
31.01.2008 06:53 2,1 C 93 % 1014,5 hPa 0,0 l/m 22,9 km/h (4 Bft) W-SW 240 0 min 0 W/m 1,1 C -8,1 C 22,9 km/h (4 Bft)
31.01.2008 06:56 2,1 C 93 % 1014,5 hPa 0,0 l/m 35,9 km/h (5 Bft) SW 235 0 min 0 W/m 1,1 C -12,0 C 35,9 km/h (5 Bft)
31.01.2008 06:59 2,2 C 93 % 1014,5 hPa 0,0 l/m 28,6 km/h (5 Bft) SW 230 0 min 0 W/m 1,2 C -9,9 C 28,6 km/h (5 Bft)
31.01.2008 07:02 2,2 C 93 % 1013,5 hPa 0,0 l/m 27,5 km/h (5 Bft) W-SW 240 0 min 0 W/m 1,2 C -9,6 C 27,5 km/h (5 Bft)
31.01.2008 07:05 2,1 C 93 % 1013,5 hPa 0,0 l/m 26,5 km/h (4 Bft) SW 225 0 min 0 W/m 1,1 C -9,4 C 26,5 km/h (4 Bft)
31.01.2008 07:08 2,1 C 93 % 1013,5 hPa 0,0 l/m 18,6 km/h (3 Bft) SW 235 0 min 0 W/m 1,1 C -6,3 C 18,6 km/h (3 Bft)
31.01.2008 07:11 2,1 C 93 % 1013,5 hPa 0,0 l/m 25,4 km/h (4 Bft) SW 230 0 min 0 W/m 1,1 C -9,0 C 25,4 km/h (4 Bft)
31.01.2008 07:14 2,1 C 92 % 1013,5 hPa 0,0 l/m 28,8 km/h (5 Bft) W-SW 240 0 min 0 W/m 0,9 C -10,1 C 28,8 km/h (5 Bft)
31.01.2008 07:17 2,1 C 92 % 1013,5 hPa 0,0 l/m 19,7 km/h (3 Bft) SW 235 0 min 0 W/m 0,9 C -6,8 C 19,7 km/h (3 Bft)
31.01.2008 07:20 2,0 C 92 % 1013,5 hPa 0,0 l/m 25,7 km/h (4 Bft) SW 230 0 min 0 W/m 0,8 C -9,3 C 25,7 km/h (4 Bft)
31.01.2008 07:23 2,0 C 92 % 1013,5 hPa 0,0 l/m 26,5 km/h (4 Bft) SW 235 0 min 0 W/m 0,8 C -9,5 C 26,5 km/h (4 Bft)
31.01.2008 07:26 2,0 C 92 % 1013,5 hPa 0,0 l/m 33,1 km/h (5 Bft) SW 235 0 min 0 W/m 0,8 C -11,4 C 33,1 km/h (5 Bft)
31.01.2008 07:30 2,0 C 92 % 1013,5 hPa 0,0 l/m 24,7 km/h (4 Bft) SW 230 0 min 0 W/m 0,8 C -8,9 C 24,7 km/h (4 Bft)
31.01.2008 07:33 2,0 C 92 % 1013,5 hPa 0,0 l/m 25,3 km/h (4 Bft) W-SW 240 0 min 0 W/m 0,8 C -9,1 C 25,3 km/h (4 Bft)
31.01.2008 07:36 2,1 C 92 % 1013,5 hPa 0,0 l/m 25,3 km/h (4 Bft) W-SW 240 0 min 0 W/m 0,9 C -9,0 C 25,3 km/h (4 Bft)
31.01.2008 07:38 2,1 C 92 % 1013,5 hPa 0,0 l/m 25,6 km/h (4 Bft) SW 230 0 min 0 W/m 0,9 C -9,1 C 25,6 km/h (4 Bft)
31.01.2008 07:41 2,2 C 92 % 1013,5 hPa 0,0 l/m 25,0 km/h (4 Bft) SW 235 0 min 0 W/m 1,0 C -8,7 C 25,0 km/h (4 Bft)
31.01.2008 07:44 2,2 C 92 % 1012,5 hPa 0,0 l/m 26,1 km/h (4 Bft) W-SW 240 0 min 0 W/m 1,0 C -9,1 C 26,1 km/h (4 Bft)
31.01.2008 07:47 2,2 C 92 % 1012,5 hPa 0,0 l/m 23,3 km/h (4 Bft) W-SW 240 0 min 0 W/m 1,0 C -8,1 C 23,3 km/h (4 Bft)
31.01.2008 07:50 2,3 C 92 % 1012,5 hPa 0,0 l/m 30,6 km/h (5 Bft) SW 235 0 min 0 W/m 1,1 C -10,3 C 30,6 km/h (5 Bft)
31.01.2008 07:53 2,3 C 92 % 1012,5 hPa 0,0 l/m 33,6 km/h (5 Bft) SW 235 0 min 0 W/m 1,1 C -11,1 C 33,6 km/h (5 Bft)
31.01.2008 07:56 2,3 C 92 % 1012,5 hPa 0,0 l/m 27,6 km/h (5 Bft) W-SW 240 0 min 0 W/m 1,1 C -9,5 C 27,6 km/h (5 Bft)
31.01.2008 07:59 2,3 C 92 % 1012,5 hPa 0,0 l/m 30,5 km/h (5 Bft) SW 235 0 min 0 W/m 1,1 C -10,3 C 30,5 km/h (5 Bft)
31.01.2008 08:02 2,3 C 91 % 1012,5 hPa 0,0 l/m 25,6 km/h (4 Bft) SW 225 0 min 0 W/m 1,0 C -8,8 C 25,6 km/h (4 Bft)
31.01.2008 08:05 2,3 C 91 % 1012,5 hPa 0,0 l/m 30,8 km/h (5 Bft) W-SW 240 0 min 0 W/m 1,0 C -10,4 C 30,8 km/h (5 Bft)
31.01.2008 08:08 2,3 C 91 % 1012,5 hPa 0,0 l/m 30,1 km/h (5 Bft) W-SW 240 0 min 0 W/m 1,0 C -10,2 C 30,1 km/h (5 Bft)
31.01.2008 08:11 2,4 C 91 % 1012,5 hPa 0,0 l/m 32,2 km/h (5 Bft) W-SW 245 0 min 0 W/m 1,1 C -10,6 C 32,2 km/h (5 Bft)
31.01.2008 08:14 2,5 C 90 % 1012,5 hPa 0,0 l/m 32,2 km/h (5 Bft) W-SW 245 0 min 0 W/m 1,0 C -10,5 C 32,2 km/h (5 Bft)
31.01.2008 08:17 2,4 C 90 % 1012,5 hPa 0,0 l/m 32,2 km/h (5 Bft) W-SW 240 0 min 0 W/m 0,9 C -10,6 C 32,2 km/h (5 Bft)
31.01.2008 08:20 2,5 C 90 % 1012,5 hPa 0,0 l/m 32,2 km/h (5 Bft) W-SW 240 0 min 0 W/m 1,0 C -10,5 C 32,2 km/h (5 Bft)
31.01.2008 08:23 2,5 C 90 % 1012,5 hPa 0,0 l/m 39,7 km/h (6 Bft) W-SW 245 0 min 0 W/m 1,0 C -12,2 C 39,7 km/h (6 Bft)
31.01.2008 08:26 2,6 C 90 % 1012,5 hPa 0,0 l/m 32,8 km/h (5 Bft) SW 230 0 min 0 W/m 1,1 C -10,5 C 32,8 km/h (5 Bft)
31.01.2008 08:29 2,6 C 90 % 1012,5 hPa 0,0 l/m 31,4 km/h (5 Bft) SW 225 0 min 0 W/m 1,1 C -10,1 C 31,4 km/h (5 Bft)
31.01.2008 08:32 2,7 C 90 % 1012,5 hPa 0,0 l/m 29,7 km/h (5 Bft) SW 235 0 min 0 W/m 1,2 C -9,5 C 29,7 km/h (5 Bft)
31.01.2008 08:36 2,8 C 89 % 1012,5 hPa 0,0 l/m 27,0 km/h (5 Bft) SW 235 0 min 0 W/m 1,2 C -8,6 C 27,0 km/h (5 Bft)
31.01.2008 08:39 2,9 C 89 % 1012,5 hPa 0,0 l/m 30,0 km/h (5 Bft) SW 235 0 min 0 W/m 1,3 C -9,3 C 30,0 km/h (5 Bft)
31.01.2008 08:42 2,9 C 88 % 1011,5 hPa 0,0 l/m 30,5 km/h (5 Bft) W-SW 240 0 min 0 W/m 1,1 C -9,5 C 30,5 km/h (5 Bft)
31.01.2008 08:44 2,8 C 88 % 1011,5 hPa 0,0 l/m 27,6 km/h (5 Bft) SW 230 0 min 0 W/m 1,0 C -8,8 C 27,6 km/h (5 Bft)
31.01.2008 08:47 2,8 C 88 % 1011,5 hPa 0,0 l/m 27,6 km/h (5 Bft) SW 230 0 min 0 W/m 1,0 C -8,8 C 27,6 km/h (5 Bft)
31.01.2008 08:50 2,9 C 88 % 1011,5 hPa 0,0 l/m 24,5 km/h (4 Bft) SW 230 0 min 0 W/m 1,1 C -7,6 C 24,5 km/h (4 Bft)
31.01.2008 08:53 2,9 C 88 % 1011,5 hPa 0,0 l/m 31,8 km/h (5 Bft) W-SW 240 0 min 0 W/m 1,1 C -9,8 C 31,8 km/h (5 Bft)
31.01.2008 08:56 2,9 C 88 % 1011,5 hPa 0,0 l/m 30,2 km/h (5 Bft) SW 220 0 min 0 W/m 1,1 C -9,4 C 30,2 km/h (5 Bft)
31.01.2008 08:59 2,9 C 88 % 1011,5 hPa 0,0 l/m 33,5 km/h (5 Bft) SW 230 0 min 0 W/m 1,1 C -10,2 C 33,5 km/h (5 Bft)
31.01.2008 09:03 2,9 C 88 % 1011,5 hPa 0,0 l/m 32,5 km/h (5 Bft) SW 230 0 min 0 W/m 1,1 C -10,0 C 32,5 km/h (5 Bft)
31.01.2008 09:05 2,9 C 88 % 1011,5 hPa 0,0 l/m 22,8 km/h (4 Bft) W-SW 240 0 min 0 W/m 1,1 C -7,0 C 22,8 km/h (4 Bft)
31.01.2008 09:08 2,8 C 88 % 1011,5 hPa 0,0 l/m 37,5 km/h (5 Bft) SW 235 0 min 0 W/m 1,0 C -11,3 C 37,5 km/h (5 Bft)
31.01.2008 09:11 2,8 C 88 % 1011,5 hPa 0,0 l/m 32,6 km/h (5 Bft) SW 235 0 min 0 W/m 1,0 C -10,2 C 32,6 km/h (5 Bft)
31.01.2008 09:14 2,9 C 88 % 1011,5 hPa 0,0 l/m 32,7 km/h (5 Bft) W-SW 255 0 min 0 W/m 1,1 C -10,0 C 32,7 km/h (5 Bft)
31.01.2008 09:17 2,8 C 87 % 1011,5 hPa 0,0 l/m 28,5 km/h (5 Bft) SW 235 0 min 0 W/m 0,9 C -9,0 C 28,5 km/h (5 Bft)
31.01.2008 09:20 2,9 C 87 % 1011,5 hPa 0,0 l/m 37,5 km/h (5 Bft) SW 230 0 min 0 W/m 1,0 C -11,1 C 37,5 km/h (5 Bft)
31.01.2008 09:23 2,9 C 87 % 1011,5 hPa 0,0 l/m 34,9 km/h (5 Bft) W-SW 240 0 min 0 W/m 1,0 C -10,6 C 34,9 km/h (5 Bft)
31.01.2008 09:26 2,9 C 87 % 1011,5 hPa 0,0 l/m 38,3 km/h (6 Bft) W-SW 250 0 min 0 W/m 1,0 C -11,3 C 38,3 km/h (6 Bft)
31.01.2008 09:29 2,9 C 87 % 1010,5 hPa 0,0 l/m 31,7 km/h (5 Bft) W-SW 250 0 min 0 W/m 1,0 C -9,8 C 31,7 km/h (5 Bft)
31.01.2008 09:32 2,9 C 87 % 1010,5 hPa 0,0 l/m 36,6 km/h (5 Bft) W-SW 240 0 min 0 W/m 1,0 C -10,9 C 36,6 km/h (5 Bft)
31.01.2008 09:35 2,9 C 87 % 1010,5 hPa 0,0 l/m 34,9 km/h (5 Bft) SW 230 0 min 0 W/m 1,0 C -10,6 C 34,9 km/h (5 Bft)
31.01.2008 09:39 3,0 C 87 % 1010,5 hPa 0,0 l/m 40,0 km/h (6 Bft) W-SW 240 0 min 0 W/m 1,1 C -11,5 C 40,0 km/h (6 Bft)
31.01.2008 09:42 3,0 C 86 % 1010,5 hPa 0,0 l/m 35,4 km/h (5 Bft) W-SW 245 0 min 0 W/m 0,9 C -10,5 C 35,4 km/h (5 Bft)
31.01.2008 09:44 3,1 C 86 % 1010,5 hPa 0,0 l/m 33,1 km/h (5 Bft) SW 230 0 min 0 W/m 1,0 C -9,9 C 33,1 km/h (5 Bft)
31.01.2008 09:47 3,1 C 86 % 1010,5 hPa 0,0 l/m 32,5 km/h (5 Bft) SW 235 0 min 0 W/m 1,0 C -9,7 C 32,5 km/h (5 Bft)
31.01.2008 09:50 3,1 C 86 % 1010,5 hPa 0,0 l/m 28,5 km/h (5 Bft) SW 235 0 min 0 W/m 1,0 C -8,6 C 28,5 km/h (5 Bft)
31.01.2008 09:53 3,1 C 86 % 1010,5 hPa 0,0 l/m 36,3 km/h (5 Bft) W-SW 240 0 min 0 W/m 1,0 C -10,6 C 36,3 km/h (5 Bft)
31.01.2008 09:56 3,1 C 86 % 1010,5 hPa 0,0 l/m 39,9 km/h (6 Bft) SW 230 0 min 0 W/m 1,0 C -11,3 C 39,9 km/h (6 Bft)
31.01.2008 09:59 3,1 C 86 % 1010,5 hPa 0,0 l/m 36,2 km/h (5 Bft) SW 235 0 min 0 W/m 1,0 C -10,6 C 36,2 km/h (5 Bft)
31.01.2008 10:02 3,1 C 86 % 1010,5 hPa 0,0 l/m 33,1 km/h (5 Bft) SW 230 0 min 0 W/m 1,0 C -9,9 C 33,1 km/h (5 Bft)
31.01.2008 10:05 3,1 C 86 % 1010,5 hPa 0,0 l/m 40,0 km/h (6 Bft) W-SW 245 0 min 0 W/m 1,0 C -11,3 C 40,0 km/h (6 Bft)
31.01.2008 10:08 3,1 C 86 % 1009,5 hPa 0,0 l/m 31,2 km/h (5 Bft) SW 230 0 min 0 W/m 1,0 C -9,4 C 31,2 km/h (5 Bft)
31.01.2008 10:11 3,2 C 86 % 1009,5 hPa 0,0 l/m 32,7 km/h (5 Bft) SW 230 0 min 0 W/m 1,1 C -9,6 C 32,7 km/h (5 Bft)
31.01.2008 10:14 3,2 C 86 % 1009,5 hPa 0,0 l/m 40,7 km/h (6 Bft) W-SW 245 0 min 0 W/m 1,1 C -11,3 C 40,7 km/h (6 Bft)
31.01.2008 10:17 3,2 C 86 % 1009,5 hPa 0,0 l/m 28,4 km/h (5 Bft) W-SW 245 0 min 0 W/m 1,1 C -8,5 C 28,4 km/h (5 Bft)
31.01.2008 10:20 3,2 C 86 % 1009,5 hPa 0,0 l/m 30,6 km/h (5 Bft) W-SW 240 0 min 0 W/m 1,1 C -9,1 C 30,6 km/h (5 Bft)
31.01.2008 10:23 3,2 C 86 % 1009,5 hPa 0,0 l/m 30,1 km/h (5 Bft) W-SW 240 0 min 0 W/m 1,1 C -8,9 C 30,1 km/h (5 Bft)
31.01.2008 10:26 3,2 C 86 % 1009,5 hPa 0,0 l/m 31,2 km/h (5 Bft) SW 230 0 min 0 W/m 1,1 C -9,2 C 31,2 km/h (5 Bft)
31.01.2008 10:29 3,3 C 86 % 1009,5 hPa 0,0 l/m 29,9 km/h (5 Bft) SW 230 0 min 0 W/m 1,2 C -8,7 C 29,9 km/h (5 Bft)
31.01.2008 10:33 3,3 C 86 % 1009,5 hPa 0,0 l/m 35,9 km/h (5 Bft) SW 235 0 min 0 W/m 1,2 C -10,2 C 35,9 km/h (5 Bft)
31.01.2008 10:36 3,3 C 86 % 1009,5 hPa 0,0 l/m 42,0 km/h (6 Bft) SW 225 0 min 0 W/m 1,2 C -11,4 C 42,0 km/h (6 Bft)
31.01.2008 10:38 3,4 C 86 % 1009,5 hPa 0,0 l/m 28,7 km/h (5 Bft) W-SW 240 0 min 0 W/m 1,3 C -8,3 C 28,7 km/h (5 Bft)
31.01.2008 10:41 3,3 C 86 % 1009,5 hPa 0,0 l/m 31,7 km/h (5 Bft) SW 220 0 min 0 W/m 1,2 C -9,2 C 31,7 km/h (5 Bft)
31.01.2008 10:44 3,4 C 86 % 1008,5 hPa 0,0 l/m 43,6 km/h (6 Bft) W-SW 240 0 min 0 W/m 1,3 C -11,5 C 43,6 km/h (6 Bft)
31.01.2008 10:47 3,4 C 85 % 1008,5 hPa 0,0 l/m 33,9 km/h (5 Bft) SW 230 0 min 0 W/m 1,1 C -9,6 C 33,9 km/h (5 Bft)
31.01.2008 10:50 3,4 C 86 % 1008,5 hPa 0,0 l/m 34,5 km/h (5 Bft) SW 235 0 min 0 W/m 1,3 C -9,8 C 34,5 km/h (5 Bft)
31.01.2008 10:53 3,5 C 85 % 1008,5 hPa 0,0 l/m 32,0 km/h (5 Bft) W-SW 250 0 min 0 W/m 1,2 C -9,0 C 32,0 km/h (5 Bft)
31.01.2008 10:56 3,5 C 85 % 1008,5 hPa 0,0 l/m 38,5 km/h (6 Bft) SW 230 0 min 0 W/m 1,2 C -10,5 C 38,5 km/h (6 Bft)
31.01.2008 10:59 3,5 C 85 % 1008,5 hPa 0,0 l/m 33,6 km/h (5 Bft) SW 230 0 min 0 W/m 1,2 C -9,4 C 33,6 km/h (5 Bft)
31.01.2008 11:02 3,5 C 85 % 1008,5 hPa 0,0 l/m 33,6 km/h (5 Bft) SW 230 0 min 0 W/m 1,2 C -9,4 C 33,6 km/h (5 Bft)
31.01.2008 11:05 3,5 C 85 % 1008,5 hPa 0,0 l/m 37,1 km/h (5 Bft) SW 230 0 min 0 W/m 1,2 C -10,2 C 37,1 km/h (5 Bft)
31.01.2008 11:08 3,5 C 85 % 1008,5 hPa 0,0 l/m 33,4 km/h (5 Bft) W-SW 245 0 min 0 W/m 1,2 C -9,4 C 33,4 km/h (5 Bft)
31.01.2008 11:11 3,5 C 85 % 1008,5 hPa 0,0 l/m 35,1 km/h (5 Bft) SW 225 0 min 0 W/m 1,2 C -9,7 C 35,1 km/h (5 Bft)
31.01.2008 11:14 3,5 C 85 % 1008,5 hPa 0,0 l/m 39,6 km/h (6 Bft) SW 230 0 min 0 W/m 1,2 C -10,7 C 39,6 km/h (6 Bft)
31.01.2008 11:17 3,5 C 85 % 1008,5 hPa 0,0 l/m 35,6 km/h (5 Bft) SW 230 0 min 0 W/m 1,2 C -9,9 C 35,6 km/h (5 Bft)
31.01.2008 11:20 3,6 C 85 % 1007,5 hPa 0,0 l/m 29,9 km/h (5 Bft) SW 225 0 min 0 W/m 1,3 C -8,3 C 29,9 km/h (5 Bft)
31.01.2008 11:23 3,7 C 85 % 1007,5 hPa 0,0 l/m 37,1 km/h (5 Bft) SW 220 0 min 0 W/m 1,4 C -9,9 C 37,1 km/h (5 Bft)
31.01.2008 11:26 3,7 C 85 % 1007,5 hPa 0,0 l/m 39,3 km/h (6 Bft) SW 225 0 min 0 W/m 1,4 C -10,3 C 39,3 km/h (6 Bft)
31.01.2008 11:30 3,7 C 85 % 1007,5 hPa 0,0 l/m 37,9 km/h (6 Bft) SW 220 0 min 0 W/m 1,4 C -10,0 C 37,9 km/h (6 Bft)
31.01.2008 11:33 3,7 C 84 % 1007,5 hPa 0,0 l/m 39,8 km/h (6 Bft) W-SW 240 0 min 0 W/m 1,3 C -10,4 C 39,8 km/h (6 Bft)
31.01.2008 11:36 3,7 C 84 % 1007,5 hPa 0,0 l/m 42,0 km/h (6 Bft) W-SW 245 0 min 0 W/m 1,3 C -10,8 C 42,0 km/h (6 Bft)
31.01.2008 11:38 3,7 C 84 % 1007,5 hPa 0,0 l/m 43,7 km/h (6 Bft) SW 225 0 min 0 W/m 1,3 C -11,1 C 43,7 km/h (6 Bft)
31.01.2008 11:41 3,7 C 84 % 1007,5 hPa 0,0 l/m 47,1 km/h (6 Bft) SW 220 0 min 0 W/m 1,3 C -11,6 C 47,1 km/h (6 Bft)
31.01.2008 11:44 3,7 C 84 % 1007,5 hPa 0,0 l/m 33,4 km/h (5 Bft) W-SW 250 0 min 0 W/m 1,3 C -9,1 C 33,4 km/h (5 Bft)
31.01.2008 11:47 3,7 C 84 % 1007,5 hPa 0,0 l/m 33,4 km/h (5 Bft) W-SW 250 0 min 0 W/m 1,3 C -9,1 C 33,4 km/h (5 Bft)
31.01.2008 11:50 3,7 C 84 % 1006,5 hPa 0,0 l/m 37,0 km/h (5 Bft) SW 230 0 min 0 W/m 1,3 C -9,9 C 37,0 km/h (5 Bft)
31.01.2008 11:53 3,8 C 83 % 1006,5 hPa 0,0 l/m 43,4 km/h (6 Bft) SW 225 0 min 0 W/m 1,2 C -10,9 C 43,4 km/h (6 Bft)
31.01.2008 11:56 3,8 C 84 % 1006,5 hPa 0,0 l/m 33,3 km/h (5 Bft) SW 230 0 min 0 W/m 1,4 C -8,9 C 33,3 km/h (5 Bft)
31.01.2008 11:59 3,8 C 84 % 1006,5 hPa 0,0 l/m 40,3 km/h (6 Bft) W-SW 240 0 min 0 W/m 1,4 C -10,4 C 40,3 km/h (6 Bft)
31.01.2008 12:02 3,8 C 84 % 1006,5 hPa 0,0 l/m 40,3 km/h (6 Bft) W-SW 240 0 min 0 W/m 1,4 C -10,4 C 40,3 km/h (6 Bft)
31.01.2008 12:05 3,8 C 83 % 1006,5 hPa 0,0 l/m 40,3 km/h (6 Bft) W-SW 240 0 min 0 W/m 1,2 C -10,4 C 40,3 km/h (6 Bft)
31.01.2008 12:08 3,9 C 83 % 1006,5 hPa 0,0 l/m 34,9 km/h (5 Bft) SW 225 0 min 0 W/m 1,3 C -9,1 C 34,9 km/h (5 Bft)
31.01.2008 12:11 3,9 C 83 % 1005,5 hPa 0,0 l/m 39,6 km/h (6 Bft) SW 225 0 min 0 W/m 1,3 C -10,1 C 39,6 km/h (6 Bft)
31.01.2008 12:14 3,9 C 83 % 1005,5 hPa 0,0 l/m 42,6 km/h (6 Bft) SW 230 0 min 0 W/m 1,3 C -10,6 C 42,6 km/h (6 Bft)
31.01.2008 12:17 3,8 C 83 % 1005,5 hPa 0,0 l/m 34,1 km/h (5 Bft) W-SW 240 0 min 0 W/m 1,2 C -9,1 C 34,1 km/h (5 Bft)
31.01.2008 12:20 3,8 C 83 % 1005,5 hPa 0,0 l/m 34,1 km/h (5 Bft) W-SW 240 0 min 0 W/m 1,2 C -9,1 C 34,1 km/h (5 Bft)
31.01.2008 12:24 3,9 C 83 % 1005,5 hPa 0,0 l/m 44,3 km/h (6 Bft) W-SW 245 0 min 0 W/m 1,3 C -10,9 C 44,3 km/h (6 Bft)
31.01.2008 12:27 3,9 C 83 % 1005,5 hPa 0,0 l/m 41,2 km/h (6 Bft) SW 230 0 min 0 W/m 1,3 C -10,4 C 41,2 km/h (6 Bft)
31.01.2008 12:30 3,8 C 83 % 1005,5 hPa 0,0 l/m 49,4 km/h (7 Bft) SW 235 0 min 0 W/m 1,2 C -11,8 C 49,4 km/h (7 Bft)
31.01.2008 12:32 3,9 C 83 % 1005,5 hPa 0,0 l/m 53,1 km/h (7 Bft) SW 230 0 min 0 W/m 1,3 C -12,0 C 53,1 km/h (7 Bft)
31.01.2008 12:35 3,9 C 82 % 1005,5 hPa 0,0 l/m 37,0 km/h (5 Bft) SW 230 0 min 0 W/m 1,1 C -9,6 C 37,0 km/h (5 Bft)
31.01.2008 12:38 3,8 C 83 % 1005,5 hPa 0,0 l/m 44,4 km/h (6 Bft) SW 220 0 min 0 W/m 1,2 C -11,0 C 44,4 km/h (6 Bft)
31.01.2008 12:41 3,9 C 82 % 1004,5 hPa 0,0 l/m 36,7 km/h (5 Bft) W-SW 240 0 min 0 W/m 1,1 C -9,5 C 36,7 km/h (5 Bft)
31.01.2008 12:44 3,9 C 83 % 1004,5 hPa 0,0 l/m 34,0 km/h (5 Bft) SW 235 0 min 0 W/m 1,3 C -8,9 C 34,0 km/h (5 Bft)
31.01.2008 12:47 3,9 C 83 % 1004,5 hPa 0,0 l/m 47,5 km/h (6 Bft) W-SW 240 0 min 0 W/m 1,3 C -11,4 C 47,5 km/h (6 Bft)
31.01.2008 12:50 3,9 C 83 % 1004,5 hPa 0,0 l/m 41,1 km/h (6 Bft) SW 225 0 min 0 W/m 1,3 C -10,3 C 41,1 km/h (6 Bft)
31.01.2008 12:53 3,9 C 83 % 1004,5 hPa 0,0 l/m 41,3 km/h (6 Bft) SW 230 0 min 0 W/m 1,3 C -10,4 C 41,3 km/h (6 Bft)
31.01.2008 12:56 3,9 C 83 % 1004,5 hPa 0,0 l/m 33,6 km/h (5 Bft) SW 225 0 min 0 W/m 1,3 C -8,8 C 33,6 km/h (5 Bft)
31.01.2008 13:00 4,0 C 82 % 1004,5 hPa 0,0 l/m 43,2 km/h (6 Bft) SW 235 0 min 0 W/m 1,2 C -10,6 C 43,2 km/h (6 Bft)
31.01.2008 13:02 3,9 C 83 % 1004,5 hPa 0,0 l/m 34,5 km/h (5 Bft) SW 225 0 min 0 W/m 1,3 C -9,0 C 34,5 km/h (5 Bft)
31.01.2008 13:05 3,9 C 82 % 1004,5 hPa 0,0 l/m 47,0 km/h (6 Bft) W-SW 240 0 min 0 W/m 1,1 C -11,3 C 47,0 km/h (6 Bft)
31.01.2008 13:08 4,0 C 82 % 1004,5 hPa 0,0 l/m 43,2 km/h (6 Bft) W-SW 245 0 min 0 W/m 1,2 C -10,6 C 43,2 km/h (6 Bft)
31.01.2008 13:11 3,9 C 82 % 1003,5 hPa 0,0 l/m 43,2 km/h (6 Bft) W-SW 240 0 min 0 W/m 1,1 C -10,7 C 43,2 km/h (6 Bft)
31.01.2008 13:14 4,0 C 82 % 1003,5 hPa 0,0 l/m 48,4 km/h (6 Bft) SW 230 0 min 0 W/m 1,2 C -11,3 C 48,4 km/h (6 Bft)
31.01.2008 13:18 4,0 C 82 % 1003,5 hPa 0,0 l/m 48,7 km/h (7 Bft) W-SW 240 0 min 0 W/m 1,2 C -11,4 C 48,7 km/h (7 Bft)
31.01.2008 13:21 4,0 C 81 % 1003,5 hPa 0,0 l/m 44,5 km/h (6 Bft) SW 225 0 min 0 W/m 1,0 C -10,8 C 44,5 km/h (6 Bft)
31.01.2008 13:23 4,0 C 81 % 1003,5 hPa 0,0 l/m 48,5 km/h (6 Bft) SW 225 0 min 0 W/m 1,0 C -11,3 C 48,5 km/h (6 Bft)
31.01.2008 13:26 4,1 C 81 % 1003,5 hPa 0,0 l/m 44,0 km/h (6 Bft) SW 235 0 min 0 W/m 1,1 C -10,5 C 44,0 km/h (6 Bft)
31.01.2008 13:29 4,1 C 81 % 1003,5 hPa 0,0 l/m 49,3 km/h (7 Bft) SW 225 0 min 0 W/m 1,1 C -11,3 C 49,3 km/h (7 Bft)
31.01.2008 13:32 4,1 C 81 % 1002,5 hPa 0,0 l/m 43,7 km/h (6 Bft) SW 230 0 min 0 W/m 1,1 C -10,5 C 43,7 km/h (6 Bft)
31.01.2008 13:35 4,1 C 81 % 1002,5 hPa 0,0 l/m 42,1 km/h (6 Bft) W-SW 245 0 min 0 W/m 1,1 C -10,2 C 42,1 km/h (6 Bft)
31.01.2008 13:38 4,1 C 81 % 1002,5 hPa 0,0 l/m 40,8 km/h (6 Bft) SW 225 0 min 0 W/m 1,1 C -10,0 C 40,8 km/h (6 Bft)
31.01.2008 13:41 4,1 C 80 % 1002,5 hPa 0,0 l/m 43,4 km/h (6 Bft) W-SW 240 0 min 0 W/m 1,0 C -10,4 C 43,4 km/h (6 Bft)
31.01.2008 13:44 4,2 C 80 % 1002,5 hPa 0,0 l/m 46,5 km/h (6 Bft) SW 235 0 min 0 W/m 1,1 C -10,8 C 46,5 km/h (6 Bft)
31.01.2008 13:47 4,2 C 80 % 1002,5 hPa 0,0 l/m 42,1 km/h (6 Bft) W-SW 240 0 min 0 W/m 1,1 C -10,1 C 42,1 km/h (6 Bft)
31.01.2008 13:51 4,3 C 79 % 1002,5 hPa 0,0 l/m 49,2 km/h (7 Bft) W-SW 245 0 min 0 W/m 1,0 C -11,0 C 49,2 km/h (7 Bft)
31.01.2008 13:54 4,3 C 79 % 1002,5 hPa 0,0 l/m 38,7 km/h (6 Bft) SW 235 0 min 0 W/m 1,0 C -9,3 C 38,7 km/h (6 Bft)
31.01.2008 13:56 4,3 C 79 % 1002,5 hPa 0,0 l/m 46,8 km/h (6 Bft) W-SW 255 0 min 0 W/m 1,0 C -10,6 C 46,8 km/h (6 Bft)
31.01.2008 13:59 4,3 C 79 % 1001,5 hPa 0,0 l/m 59,9 km/h (7 Bft) SW 230 0 min 0 W/m 1,0 C -12,1 C 59,9 km/h (7 Bft)
31.01.2008 14:02 4,3 C 79 % 1001,5 hPa 0,0 l/m 59,9 km/h (7 Bft) SW 230 0 min 0 W/m 1,0 C -12,1 C 59,9 km/h (7 Bft)
31.01.2008 14:05 4,3 C 78 % 1001,5 hPa 0,0 l/m 52,3 km/h (7 Bft) SW 230 0 min 0 W/m 0,8 C -11,3 C 52,3 km/h (7 Bft)
31.01.2008 14:09 4,3 C 78 % 1001,5 hPa 0,0 l/m 48,7 km/h (7 Bft) SW 225 0 min 0 W/m 0,8 C -10,9 C 48,7 km/h (7 Bft)
31.01.2008 14:12 4,3 C 78 % 1001,5 hPa 0,0 l/m 41,2 km/h (6 Bft) SW 230 0 min 0 W/m 0,8 C -9,8 C 41,2 km/h (6 Bft)
31.01.2008 14:14 4,4 C 78 % 1001,5 hPa 0,0 l/m 47,7 km/h (6 Bft) SW 225 0 min 0 W/m 0,9 C -10,6 C 47,7 km/h (6 Bft)
31.01.2008 14:17 4,4 C 77 % 1000,5 hPa 0,0 l/m 47,0 km/h (6 Bft) SW 230 0 min 0 W/m 0,7 C -10,5 C 47,0 km/h (6 Bft)
31.01.2008 14:20 4,5 C 77 % 1000,5 hPa 0,0 l/m 47,7 km/h (6 Bft) SW 235 0 min 0 W/m 0,8 C -10,5 C 47,7 km/h (6 Bft)
31.01.2008 14:23 4,4 C 77 % 1000,5 hPa 0,0 l/m 46,4 km/h (6 Bft) W-SW 240 0 min 0 W/m 0,7 C -10,4 C 46,4 km/h (6 Bft)
31.01.2008 14:26 4,3 C 77 % 1000,5 hPa 0,0 l/m 45,2 km/h (6 Bft) SW 225 0 min 0 W/m 0,6 C -10,4 C 45,2 km/h (6 Bft)
31.01.2008 14:29 4,3 C 78 % 1000,5 hPa 0,0 l/m 45,8 km/h (6 Bft) W-SW 240 0 min 0 W/m 0,8 C -10,5 C 45,8 km/h (6 Bft)
31.01.2008 14:32 4,3 C 79 % 1000,5 hPa 0,0 l/m 34,5 km/h (5 Bft) W-SW 240 0 min 0 W/m 1,0 C -8,5 C 34,5 km/h (5 Bft)
31.01.2008 14:35 4,3 C 79 % 1000,5 hPa 0,0 l/m 40,0 km/h (6 Bft) SW 230 0 min 0 W/m 1,0 C -9,6 C 40,0 km/h (6 Bft)
31.01.2008 14:39 4,3 C 79 % 1000,5 hPa 0,0 l/m 50,1 km/h (7 Bft) SW 220 0 min 0 W/m 1,0 C -11,1 C 50,1 km/h (7 Bft)
31.01.2008 14:42 4,3 C 78 % 1000,5 hPa 0,0 l/m 51,8 km/h (7 Bft) SW 235 0 min 0 W/m 0,8 C -11,3 C 51,8 km/h (7 Bft)
31.01.2008 14:44 4,3 C 78 % 999,5 hPa 0,0 l/m 48,5 km/h (6 Bft) W-SW 240 0 min 0 W/m 0,8 C -10,9 C 48,5 km/h (6 Bft)
31.01.2008 14:47 4,3 C 78 % 999,5 hPa 0,0 l/m 40,8 km/h (6 Bft) SW 230 0 min 0 W/m 0,8 C -9,7 C 40,8 km/h (6 Bft)
31.01.2008 14:50 4,2 C 78 % 999,5 hPa 0,0 l/m 47,8 km/h (6 Bft) SW 220 0 min 0 W/m 0,7 C -10,9 C 47,8 km/h (6 Bft)
31.01.2008 14:53 4,3 C 78 % 999,5 hPa 0,0 l/m 55,7 km/h (7 Bft) SW 230 0 min 0 W/m 0,8 C -11,7 C 55,7 km/h (7 Bft)
31.01.2008 14:56 4,2 C 78 % 999,5 hPa 0,0 l/m 43,6 km/h (6 Bft) W-SW 245 0 min 0 W/m 0,7 C -10,3 C 43,6 km/h (6 Bft)
31.01.2008 14:59 4,2 C 78 % 999,5 hPa 0,0 l/m 38,3 km/h (6 Bft) SW 230 0 min 0 W/m 0,7 C -9,4 C 38,3 km/h (6 Bft)
31.01.2008 15:02 4,2 C 79 % 999,5 hPa 0,0 l/m 46,6 km/h (6 Bft) SW 230 0 min 0 W/m 0,9 C -10,8 C 46,6 km/h (6 Bft)
31.01.2008 15:05 4,1 C 79 % 998,5 hPa 0,0 l/m 44,7 km/h (6 Bft) SW 225 0 min 0 W/m 0,8 C -10,6 C 44,7 km/h (6 Bft)
31.01.2008 15:08 4,1 C 79 % 998,5 hPa 0,0 l/m 44,0 km/h (6 Bft) SW 225 0 min 0 W/m 0,8 C -10,5 C 44,0 km/h (6 Bft)
31.01.2008 15:11 4,0 C 79 % 998,5 hPa 0,0 l/m 47,7 km/h (6 Bft) SW 230 0 min 0 W/m 0,7 C -11,2 C 47,7 km/h (6 Bft)
31.01.2008 15:14 4,0 C 79 % 998,5 hPa 0,0 l/m 50,9 km/h (7 Bft) SW 235 0 min 0 W/m 0,7 C -11,6 C 50,9 km/h (7 Bft)
31.01.2008 15:17 4,1 C 78 % 998,5 hPa 0,0 l/m 47,3 km/h (6 Bft) SW 225 0 min 0 W/m 0,6 C -11,0 C 47,3 km/h (6 Bft)
31.01.2008 15:20 4,1 C 78 % 998,5 hPa 0,0 l/m 45,2 km/h (6 Bft) W-SW 240 0 min 0 W/m 0,6 C -10,7 C 45,2 km/h (6 Bft)
31.01.2008 15:23 4,1 C 77 % 998,5 hPa 0,0 l/m 40,6 km/h (6 Bft) SW 225 0 min 0 W/m 0,4 C -10,0 C 40,6 km/h (6 Bft)
31.01.2008 15:27 4,1 C 77 % 998,5 hPa 0,0 l/m 40,6 km/h (6 Bft) SW 225 0 min 0 W/m 0,4 C -10,0 C 40,6 km/h (6 Bft)
31.01.2008 15:30 4,1 C 77 % 997,5 hPa 0,0 l/m 50,6 km/h (7 Bft) SW 230 0 min 0 W/m 0,4 C -11,4 C 50,6 km/h (7 Bft)
31.01.2008 15:32 4,1 C 77 % 997,5 hPa 0,0 l/m 46,9 km/h (6 Bft) SW 215 0 min 0 W/m 0,4 C -11,0 C 46,9 km/h (6 Bft)
31.01.2008 15:35 4,1 C 76 % 997,5 hPa 0,0 l/m 49,8 km/h (7 Bft) SW 225 0 min 0 W/m 0,3 C -11,3 C 49,8 km/h (7 Bft)
31.01.2008 15:38 4,1 C 76 % 997,5 hPa 0,0 l/m 51,6 km/h (7 Bft) SW 230 0 min 0 W/m 0,3 C -11,6 C 51,6 km/h (7 Bft)
31.01.2008 15:41 4,0 C 76 % 997,5 hPa 0,0 l/m 38,3 km/h (6 Bft) SW 230 0 min 0 W/m 0,2 C -9,7 C 38,3 km/h (6 Bft)
31.01.2008 15:44 4,1 C 77 % 997,5 hPa 0,0 l/m 40,4 km/h (6 Bft) SW 235 0 min 0 W/m 0,4 C -9,9 C 40,4 km/h (6 Bft)
31.01.2008 15:47 4,0 C 77 % 997,5 hPa 0,0 l/m 55,3 km/h (7 Bft) SW 225 0 min 0 W/m 0,3 C -12,1 C 55,3 km/h (7 Bft)
31.01.2008 15:50 4,0 C 77 % 996,5 hPa 0,0 l/m 58,8 km/h (7 Bft) SW 235 0 min 0 W/m 0,3 C -12,5 C 58,8 km/h (7 Bft)
31.01.2008 15:53 3,9 C 78 % 996,5 hPa 0,0 l/m 41,9 km/h (6 Bft) SW 225 0 min 0 W/m 0,4 C -10,5 C 41,9 km/h (6 Bft)
31.01.2008 15:57 3,9 C 79 % 996,5 hPa 0,0 l/m 44,4 km/h (6 Bft) SW 230 0 min 0 W/m 0,6 C -10,9 C 44,4 km/h (6 Bft)
31.01.2008 16:00 3,8 C 80 % 996,5 hPa 0,0 l/m 44,4 km/h (6 Bft) SW 230 0 min 0 W/m 0,7 C -11,0 C 44,4 km/h (6 Bft)
31.01.2008 16:02 3,7 C 81 % 996,5 hPa 0,0 l/m 42,5 km/h (6 Bft) W-SW 240 0 min 0 W/m 0,7 C -10,9 C 42,5 km/h (6 Bft)
31.01.2008 16:05 3,6 C 83 % 996,5 hPa 0,0 l/m 47,3 km/h (6 Bft) SW 225 0 min 0 W/m 1,0 C -11,8 C 47,3 km/h (6 Bft)
31.01.2008 16:08 3,5 C 84 % 996,5 hPa 0,0 l/m 47,1 km/h (6 Bft) SW 225 0 min 0 W/m 1,1 C -11,9 C 47,1 km/h (6 Bft)
31.01.2008 16:12 3,4 C 84 % 996,5 hPa 0,0 l/m 45,6 km/h (6 Bft) SW 225 0 min 0 W/m 1,0 C -11,8 C 45,6 km/h (6 Bft)
31.01.2008 16:15 3,3 C 85 % 996,5 hPa 0,3 l/m 45,7 km/h (6 Bft) SW 235 0 min 0 W/m 1,0 C -12,0 C 45,7 km/h (6 Bft)
31.01.2008 16:18 3,2 C 86 % 996,5 hPa 0,0 l/m 58,9 km/h (7 Bft) SW 230 0 min 0 W/m 1,1 C -13,7 C 58,9 km/h (7 Bft)
31.01.2008 16:20 3,1 C 86 % 996,5 hPa 0,0 l/m 44,2 km/h (6 Bft) W-SW 250 0 min 0 W/m 1,0 C -12,1 C 44,2 km/h (6 Bft)
31.01.2008 16:23 3,1 C 87 % 996,5 hPa 0,0 l/m 53,3 km/h (7 Bft) SW 235 0 min 0 W/m 1,2 C -13,3 C 53,3 km/h (7 Bft)
31.01.2008 16:26 3,0 C 88 % 996,5 hPa 0,0 l/m 44,9 km/h (6 Bft) SW 220 0 min 0 W/m 1,2 C -12,3 C 44,9 km/h (6 Bft)
31.01.2008 16:29 3,0 C 88 % 996,5 hPa 0,0 l/m 46,5 km/h (6 Bft) W-SW 245 0 min 0 W/m 1,2 C -12,6 C 46,5 km/h (6 Bft)
31.01.2008 16:32 3,0 C 88 % 995,5 hPa 0,3 l/m 51,5 km/h (7 Bft) W-SW 245 0 min 0 W/m 1,2 C -13,3 C 51,5 km/h (7 Bft)
31.01.2008 16:35 2,9 C 89 % 995,5 hPa 0,0 l/m 46,9 km/h (6 Bft) SW 230 0 min 0 W/m 1,3 C -12,8 C 46,9 km/h (6 Bft)
31.01.2008 16:38 2,8 C 90 % 995,5 hPa 0,0 l/m 34,0 km/h (5 Bft) W-SW 240 0 min 0 W/m 1,3 C -10,5 C 34,0 km/h (5 Bft)
31.01.2008 16:42 2,7 C 90 % 995,5 hPa 0,3 l/m 54,1 km/h (7 Bft) SW 225 0 min 0 W/m 1,2 C -14,0 C 54,1 km/h (7 Bft)
31.01.2008 16:45 2,7 C 90 % 995,5 hPa 0,0 l/m 42,5 km/h (6 Bft) W-SW 240 0 min 0 W/m 1,2 C -12,4 C 42,5 km/h (6 Bft)
31.01.2008 16:48 2,7 C 90 % 995,5 hPa 0,0 l/m 45,3 km/h (6 Bft) SW 230 0 min 0 W/m 1,2 C -12,8 C 45,3 km/h (6 Bft)
31.01.2008 16:50 2,7 C 91 % 995,5 hPa 0,3 l/m 45,6 km/h (6 Bft) SW 230 0 min 0 W/m 1,4 C -12,9 C 45,6 km/h (6 Bft)
31.01.2008 16:53 2,7 C 91 % 995,5 hPa 0,0 l/m 44,6 km/h (6 Bft) SW 220 0 min 0 W/m 1,4 C -12,7 C 44,6 km/h (6 Bft)
31.01.2008 16:56 2,6 C 92 % 995,5 hPa 0,0 l/m 42,6 km/h (6 Bft) SW 230 0 min 0 W/m 1,4 C -12,6 C 42,6 km/h (6 Bft)
31.01.2008 16:59 2,7 C 92 % 995,5 hPa 0,0 l/m 44,6 km/h (6 Bft) SW 230 0 min 0 W/m 1,5 C -12,7 C 44,6 km/h (6 Bft)
31.01.2008 17:02 2,7 C 92 % 995,5 hPa 0,0 l/m 45,0 km/h (6 Bft) SW 235 0 min 0 W/m 1,5 C -12,8 C 45,0 km/h (6 Bft)
31.01.2008 17:05 2,7 C 92 % 994,5 hPa 0,0 l/m 39,4 km/h (6 Bft) W-SW 240 0 min 0 W/m 1,5 C -11,8 C 39,4 km/h (6 Bft)
31.01.2008 17:08 2,7 C 92 % 994,5 hPa 0,0 l/m 45,0 km/h (6 Bft) W-SW 245 0 min 0 W/m 1,5 C -12,8 C 45,0 km/h (6 Bft)
31.01.2008 17:11 2,7 C 92 % 994,5 hPa 0,0 l/m 40,5 km/h (6 Bft) SW 235 0 min 0 W/m 1,5 C -12,0 C 40,5 km/h (6 Bft)
31.01.2008 17:14 2,7 C 92 % 994,5 hPa 0,0 l/m 41,8 km/h (6 Bft) SW 230 0 min 0 W/m 1,5 C -12,3 C 41,8 km/h (6 Bft)
31.01.2008 17:17 2,7 C 92 % 994,5 hPa 0,3 l/m 46,1 km/h (6 Bft) SW 235 0 min 0 W/m 1,5 C -13,0 C 46,1 km/h (6 Bft)
31.01.2008 17:20 2,7 C 93 % 994,5 hPa 0,0 l/m 46,1 km/h (6 Bft) SW 235 0 min 0 W/m 1,7 C -13,0 C 46,1 km/h (6 Bft)
31.01.2008 17:23 2,7 C 93 % 994,5 hPa 0,0 l/m 45,9 km/h (6 Bft) SW 230 0 min 0 W/m 1,7 C -12,9 C 45,9 km/h (6 Bft)
31.01.2008 17:27 2,7 C 93 % 994,5 hPa 0,0 l/m 49,6 km/h (7 Bft) SW 230 0 min 0 W/m 1,7 C -13,5 C 49,6 km/h (7 Bft)
31.01.2008 17:30 2,7 C 93 % 994,5 hPa 0,0 l/m 41,3 km/h (6 Bft) SW 220 0 min 0 W/m 1,7 C -12,2 C 41,3 km/h (6 Bft)
31.01.2008 17:33 2,7 C 93 % 994,5 hPa 0,0 l/m 49,5 km/h (7 Bft) W-SW 240 0 min 0 W/m 1,7 C -13,5 C 49,5 km/h (7 Bft)
31.01.2008 17:35 2,7 C 93 % 994,5 hPa 0,0 l/m 41,5 km/h (6 Bft) W-SW 240 0 min 0 W/m 1,7 C -12,2 C 41,5 km/h (6 Bft)
31.01.2008 17:38 2,7 C 94 % 994,5 hPa 0,0 l/m 39,5 km/h (6 Bft) W-SW 240 0 min 0 W/m 1,8 C -11,8 C 39,5 km/h (6 Bft)
31.01.2008 17:41 2,7 C 94 % 994,5 hPa 0,3 l/m 44,3 km/h (6 Bft) SW 215 0 min 0 W/m 1,8 C -12,7 C 44,3 km/h (6 Bft)
31.01.2008 17:44 2,7 C 94 % 994,5 hPa 0,0 l/m 42,3 km/h (6 Bft) SW 220 0 min 0 W/m 1,8 C -12,4 C 42,3 km/h (6 Bft)
31.01.2008 17:47 2,7 C 94 % 994,5 hPa 0,0 l/m 42,8 km/h (6 Bft) SW 225 0 min 0 W/m 1,8 C -12,4 C 42,8 km/h (6 Bft)
31.01.2008 17:50 2,7 C 94 % 994,5 hPa 0,0 l/m 42,8 km/h (6 Bft) SW 225 0 min 0 W/m 1,8 C -12,4 C 42,8 km/h (6 Bft)
31.01.2008 17:54 2,7 C 94 % 994,5 hPa 0,0 l/m 49,8 km/h (7 Bft) W-SW 240 0 min 0 W/m 1,8 C -13,5 C 49,8 km/h (7 Bft)
31.01.2008 17:57 2,7 C 94 % 994,5 hPa 0,0 l/m 38,9 km/h (6 Bft) SW 235 0 min 0 W/m 1,8 C -11,7 C 38,9 km/h (6 Bft)
31.01.2008 18:00 2,7 C 94 % 994,5 hPa 0,0 l/m 48,3 km/h (6 Bft) SW 220 0 min 0 W/m 1,8 C -13,3 C 48,3 km/h (6 Bft)
31.01.2008 18:02 2,7 C 94 % 994,5 hPa 0,0 l/m 45,7 km/h (6 Bft) W-SW 245 0 min 0 W/m 1,8 C -12,9 C 45,7 km/h (6 Bft)
31.01.2008 18:05 2,7 C 94 % 993,5 hPa 0,0 l/m 42,2 km/h (6 Bft) SW 230 0 min 0 W/m 1,8 C -12,3 C 42,2 km/h (6 Bft)
31.01.2008 18:09 2,7 C 94 % 993,5 hPa 0,0 l/m 39,7 km/h (6 Bft) SW 225 0 min 0 W/m 1,8 C -11,9 C 39,7 km/h (6 Bft)
31.01.2008 18:12 2,7 C 94 % 993,5 hPa 0,0 l/m 41,0 km/h (6 Bft) SW 235 0 min 0 W/m 1,8 C -12,1 C 41,0 km/h (6 Bft)
31.01.2008 18:15 2,7 C 94 % 993,5 hPa 0,0 l/m 49,4 km/h (7 Bft) SW 230 0 min 0 W/m 1,8 C -13,4 C 49,4 km/h (7 Bft)
31.01.2008 18:17 2,7 C 94 % 993,5 hPa 0,0 l/m 45,0 km/h (6 Bft) SW 235 0 min 0 W/m 1,8 C -12,8 C 45,0 km/h (6 Bft)
31.01.2008 18:20 2,8 C 94 % 993,5 hPa 0,0 l/m 46,5 km/h (6 Bft) SW 230 0 min 0 W/m 1,9 C -12,9 C 46,5 km/h (6 Bft)
31.01.2008 18:23 2,8 C 94 % 993,5 hPa 0,0 l/m 39,1 km/h (6 Bft) SW 230 0 min 0 W/m 1,9 C -11,6 C 39,1 km/h (6 Bft)
31.01.2008 18:26 2,8 C 94 % 993,5 hPa 0,0 l/m 38,1 km/h (6 Bft) SW 235 0 min 0 W/m 1,9 C -11,4 C 38,1 km/h (6 Bft)
31.01.2008 18:29 2,9 C 95 % 993,5 hPa 0,0 l/m 47,3 km/h (6 Bft) SW 230 0 min 0 W/m 2,2 C -12,8 C 47,3 km/h (6 Bft)
31.01.2008 18:32 2,9 C 95 % 993,5 hPa 0,0 l/m 46,8 km/h (6 Bft) SW 230 0 min 0 W/m 2,2 C -12,8 C 46,8 km/h (6 Bft)
31.01.2008 18:36 2,9 C 95 % 993,5 hPa 0,0 l/m 38,4 km/h (6 Bft) W-SW 245 0 min 0 W/m 2,2 C -11,3 C 38,4 km/h (6 Bft)
31.01.2008 18:39 2,9 C 95 % 993,5 hPa 0,3 l/m 31,4 km/h (5 Bft) W-SW 240 0 min 0 W/m 2,2 C -9,7 C 31,4 km/h (5 Bft)
31.01.2008 18:42 2,9 C 95 % 993,5 hPa 0,0 l/m 46,2 km/h (6 Bft) SW 225 0 min 0 W/m 2,2 C -12,7 C 46,2 km/h (6 Bft)
31.01.2008 18:44 3,0 C 95 % 993,5 hPa 0,0 l/m 40,1 km/h (6 Bft) SW 220 0 min 0 W/m 2,3 C -11,5 C 40,1 km/h (6 Bft)
31.01.2008 18:47 3,0 C 95 % 993,5 hPa 0,0 l/m 50,7 km/h (7 Bft) W-SW 240 0 min 0 W/m 2,3 C -13,2 C 50,7 km/h (7 Bft)
31.01.2008 18:50 3,0 C 95 % 993,5 hPa 0,0 l/m 42,8 km/h (6 Bft) SW 230 0 min 0 W/m 2,3 C -12,0 C 42,8 km/h (6 Bft)
31.01.2008 18:53 3,1 C 95 % 993,5 hPa 0,0 l/m 37,3 km/h (5 Bft) SW 235 0 min 0 W/m 2,4 C -10,8 C 37,3 km/h (5 Bft)
31.01.2008 18:56 3,1 C 95 % 992,5 hPa 0,0 l/m 42,3 km/h (6 Bft) SW 230 0 min 0 W/m 2,4 C -11,8 C 42,3 km/h (6 Bft)
31.01.2008 18:59 3,1 C 95 % 993,5 hPa 0,0 l/m 38,2 km/h (6 Bft) W-SW 240 0 min 0 W/m 2,4 C -11,0 C 38,2 km/h (6 Bft)
31.01.2008 19:02 3,1 C 95 % 993,5 hPa 0,0 l/m 39,4 km/h (6 Bft) W-SW 245 0 min 0 W/m 2,4 C -11,2 C 39,4 km/h (6 Bft)
31.01.2008 19:05 3,1 C 95 % 993,5 hPa 0,0 l/m 37,6 km/h (5 Bft) W-SW 240 0 min 0 W/m 2,4 C -10,9 C 37,6 km/h (5 Bft)
31.01.2008 19:08 3,2 C 94 % 993,5 hPa 0,0 l/m 39,0 km/h (6 Bft) SW 230 0 min 0 W/m 2,3 C -11,0 C 39,0 km/h (6 Bft)
31.01.2008 19:11 3,2 C 94 % 993,5 hPa 0,0 l/m 39,0 km/h (6 Bft) SW 230 0 min 0 W/m 2,3 C -11,0 C 39,0 km/h (6 Bft)
31.01.2008 19:15 3,3 C 94 % 993,5 hPa 0,0 l/m 42,2 km/h (6 Bft) W-SW 250 0 min 0 W/m 2,4 C -11,4 C 42,2 km/h (6 Bft)
31.01.2008 19:18 3,3 C 94 % 993,5 hPa 0,0 l/m 34,7 km/h (5 Bft) SW 230 0 min 0 W/m 2,4 C -9,9 C 34,7 km/h (5 Bft)
31.01.2008 19:21 3,3 C 94 % 993,5 hPa 0,0 l/m 38,3 km/h (6 Bft) W-SW 240 0 min 0 W/m 2,4 C -10,7 C 38,3 km/h (6 Bft)
31.01.2008 19:23 3,3 C 94 % 993,5 hPa 0,0 l/m 38,9 km/h (6 Bft) W-SW 245 0 min 0 W/m 2,4 C -10,8 C 38,9 km/h (6 Bft)
31.01.2008 19:26 3,3 C 95 % 993,5 hPa 0,0 l/m 40,5 km/h (6 Bft) W-SW 250 0 min 0 W/m 2,6 C -11,1 C 40,5 km/h (6 Bft)
31.01.2008 19:29 3,3 C 95 % 993,5 hPa 0,0 l/m 40,5 km/h (6 Bft) W-SW 250 0 min 0 W/m 2,6 C -11,1 C 40,5 km/h (6 Bft)
31.01.2008 19:32 3,4 C 95 % 993,5 hPa 0,0 l/m 30,5 km/h (5 Bft) W-SW 240 0 min 0 W/m 2,7 C -8,8 C 30,5 km/h (5 Bft)
31.01.2008 19:35 3,3 C 95 % 992,5 hPa 0,0 l/m 36,0 km/h (5 Bft) W 260 0 min 0 W/m 2,6 C -10,2 C 36,0 km/h (5 Bft)
31.01.2008 19:38 3,4 C 95 % 992,5 hPa 0,0 l/m 43,9 km/h (6 Bft) W-SW 250 0 min 0 W/m 2,7 C -11,6 C 43,9 km/h (6 Bft)
31.01.2008 19:41 3,5 C 95 % 992,5 hPa 0,0 l/m 43,9 km/h (6 Bft) W-SW 250 0 min 0 W/m 2,8 C -11,4 C 43,9 km/h (6 Bft)
31.01.2008 19:45 3,5 C 95 % 992,5 hPa 0,0 l/m 39,2 km/h (6 Bft) W-SW 255 0 min 0 W/m 2,8 C -10,6 C 39,2 km/h (6 Bft)
31.01.2008 19:48 3,6 C 95 % 992,5 hPa 0,3 l/m 42,1 km/h (6 Bft) W-SW 255 0 min 0 W/m 2,9 C -11,0 C 42,1 km/h (6 Bft)
31.01.2008 19:50 3,7 C 95 % 992,5 hPa 0,0 l/m 56,8 km/h (7 Bft) W-SW 255 0 min 0 W/m 3,0 C -12,7 C 56,8 km/h (7 Bft)
31.01.2008 19:53 3,7 C 95 % 992,5 hPa 0,0 l/m 50,6 km/h (7 Bft) W-SW 245 0 min 0 W/m 3,0 C -12,1 C 50,6 km/h (7 Bft)
31.01.2008 19:56 3,7 C 95 % 992,5 hPa 0,0 l/m 45,0 km/h (6 Bft) W-SW 255 0 min 0 W/m 3,0 C -11,3 C 45,0 km/h (6 Bft)
31.01.2008 19:59 3,8 C 94 % 993,5 hPa 0,0 l/m 40,6 km/h (6 Bft) W-SW 255 0 min 0 W/m 2,9 C -10,4 C 40,6 km/h (6 Bft)
31.01.2008 20:03 3,8 C 94 % 993,5 hPa 0,0 l/m 48,0 km/h (6 Bft) W-SW 250 0 min 0 W/m 2,9 C -11,6 C 48,0 km/h (6 Bft)
31.01.2008 20:05 3,7 C 94 % 993,5 hPa 0,0 l/m 48,6 km/h (6 Bft) W 260 0 min 0 W/m 2,8 C -11,8 C 48,6 km/h (6 Bft)
31.01.2008 20:08 3,8 C 94 % 993,5 hPa 0,0 l/m 48,5 km/h (6 Bft) W-SW 255 0 min 0 W/m 2,9 C -11,6 C 48,5 km/h (6 Bft)
31.01.2008 20:11 3,7 C 94 % 993,5 hPa 0,0 l/m 41,4 km/h (6 Bft) W-SW 250 0 min 0 W/m 2,8 C -10,7 C 41,4 km/h (6 Bft)
31.01.2008 20:14 3,7 C 94 % 992,5 hPa 0,0 l/m 50,9 km/h (7 Bft) W-SW 255 0 min 0 W/m 2,8 C -12,1 C 50,9 km/h (7 Bft)
31.01.2008 20:17 3,6 C 94 % 992,5 hPa 0,0 l/m 41,6 km/h (6 Bft) W-SW 250 0 min 0 W/m 2,7 C -10,9 C 41,6 km/h (6 Bft)
31.01.2008 20:20 3,6 C 94 % 992,5 hPa 0,0 l/m 43,2 km/h (6 Bft) W-SW 245 0 min 0 W/m 2,7 C -11,2 C 43,2 km/h (6 Bft)
31.01.2008 20:24 3,6 C 95 % 992,5 hPa 0,0 l/m 39,2 km/h (6 Bft) W-SW 240 0 min 0 W/m 2,9 C -10,4 C 39,2 km/h (6 Bft)
31.01.2008 20:27 3,6 C 95 % 992,5 hPa 0,0 l/m 36,7 km/h (5 Bft) W-SW 250 0 min 0 W/m 2,9 C -9,9 C 36,7 km/h (5 Bft)
31.01.2008 20:30 3,6 C 95 % 992,5 hPa 0,0 l/m 28,9 km/h (5 Bft) W-SW 250 0 min 0 W/m 2,9 C -8,0 C 28,9 km/h (5 Bft)
31.01.2008 20:32 3,6 C 95 % 992,5 hPa 0,0 l/m 35,4 km/h (5 Bft) W-SW 240 0 min 0 W/m 2,9 C -9,7 C 35,4 km/h (5 Bft)
31.01.2008 20:35 3,6 C 95 % 992,5 hPa 0,0 l/m 40,3 km/h (6 Bft) W-SW 250 0 min 0 W/m 2,9 C -10,7 C 40,3 km/h (6 Bft)
31.01.2008 20:38 3,6 C 95 % 992,5 hPa 0,0 l/m 30,1 km/h (5 Bft) W-SW 240 0 min 0 W/m 2,9 C -8,4 C 30,1 km/h (5 Bft)
31.01.2008 20:41 3,6 C 95 % 992,5 hPa 0,0 l/m 37,0 km/h (5 Bft) W-SW 250 0 min 0 W/m 2,9 C -10,0 C 37,0 km/h (5 Bft)
31.01.2008 20:44 3,6 C 95 % 992,5 hPa 0,0 l/m 38,6 km/h (6 Bft) W-SW 255 0 min 0 W/m 2,9 C -10,3 C 38,6 km/h (6 Bft)
31.01.2008 20:47 3,7 C 95 % 992,5 hPa 0,0 l/m 42,5 km/h (6 Bft) W-SW 250 0 min 0 W/m 3,0 C -10,9 C 42,5 km/h (6 Bft)
31.01.2008 20:51 3,7 C 95 % 991,5 hPa 0,0 l/m 49,4 km/h (7 Bft) W-SW 250 0 min 0 W/m 3,0 C -11,9 C 49,4 km/h (7 Bft)
31.01.2008 20:54 3,7 C 94 % 991,5 hPa 0,0 l/m 33,3 km/h (5 Bft) W-SW 245 0 min 0 W/m 2,8 C -9,0 C 33,3 km/h (5 Bft)
31.01.2008 20:56 3,7 C 94 % 991,5 hPa 0,0 l/m 35,0 km/h (5 Bft) W-SW 250 0 min 0 W/m 2,8 C -9,4 C 35,0 km/h (5 Bft)
31.01.2008 20:59 3,7 C 94 % 991,5 hPa 0,0 l/m 33,4 km/h (5 Bft) W-SW 240 0 min 0 W/m 2,8 C -9,1 C 33,4 km/h (5 Bft)
31.01.2008 21:03 3,7 C 94 % 991,5 hPa 0,0 l/m 41,8 km/h (6 Bft) W-SW 240 0 min 0 W/m 2,8 C -10,8 C 41,8 km/h (6 Bft)
31.01.2008 21:06 3,8 C 94 % 991,5 hPa 0,0 l/m 29,8 km/h (5 Bft) W-SW 245 0 min 0 W/m 2,9 C -8,0 C 29,8 km/h (5 Bft)
31.01.2008 21:09 3,8 C 94 % 991,5 hPa 0,0 l/m 39,3 km/h (6 Bft) W-SW 250 0 min 0 W/m 2,9 C -10,2 C 39,3 km/h (6 Bft)
31.01.2008 21:11 3,8 C 94 % 991,5 hPa 0,0 l/m 42,3 km/h (6 Bft) W-SW 240 0 min 0 W/m 2,9 C -10,7 C 42,3 km/h (6 Bft)
31.01.2008 21:14 3,8 C 93 % 991,5 hPa 0,0 l/m 42,3 km/h (6 Bft) W-SW 240 0 min 0 W/m 2,8 C -10,7 C 42,3 km/h (6 Bft)
31.01.2008 21:17 3,8 C 93 % 991,5 hPa 0,0 l/m 41,0 km/h (6 Bft) W-SW 240 0 min 0 W/m 2,8 C -10,5 C 41,0 km/h (6 Bft)
31.01.2008 21:20 3,9 C 93 % 991,5 hPa 0,0 l/m 31,1 km/h (5 Bft) W-SW 250 0 min 0 W/m 2,9 C -8,2 C 31,1 km/h (5 Bft)
31.01.2008 21:23 3,8 C 93 % 991,5 hPa 0,0 l/m 38,3 km/h (6 Bft) W-SW 250 0 min 0 W/m 2,8 C -10,0 C 38,3 km/h (6 Bft)
31.01.2008 21:26 3,8 C 93 % 991,5 hPa 0,0 l/m 38,9 km/h (6 Bft) W-SW 245 0 min 0 W/m 2,8 C -10,1 C 38,9 km/h (6 Bft)
31.01.2008 21:30 3,9 C 93 % 991,5 hPa 0,0 l/m 38,7 km/h (6 Bft) W-SW 240 0 min 0 W/m 2,9 C -9,9 C 38,7 km/h (6 Bft)
31.01.2008 21:33 3,9 C 93 % 991,5 hPa 0,0 l/m 33,4 km/h (5 Bft) W-SW 240 0 min 0 W/m 2,9 C -8,8 C 33,4 km/h (5 Bft)
31.01.2008 21:35 3,9 C 93 % 991,5 hPa 0,0 l/m 36,1 km/h (5 Bft) W-SW 240 0 min 0 W/m 2,9 C -9,4 C 36,1 km/h (5 Bft)
31.01.2008 21:38 3,9 C 93 % 991,5 hPa 0,0 l/m 43,2 km/h (6 Bft) W-SW 240 0 min 0 W/m 2,9 C -10,7 C 43,2 km/h (6 Bft)
31.01.2008 21:41 3,9 C 93 % 991,5 hPa 0,0 l/m 30,2 km/h (5 Bft) W-SW 240 0 min 0 W/m 2,9 C -8,0 C 30,2 km/h (5 Bft)
31.01.2008 21:44 3,9 C 93 % 990,5 hPa 0,0 l/m 41,5 km/h (6 Bft) W-SW 245 0 min 0 W/m 2,9 C -10,4 C 41,5 km/h (6 Bft)
31.01.2008 21:47 4,0 C 92 % 990,5 hPa 0,0 l/m 31,3 km/h (5 Bft) W-SW 250 0 min 0 W/m 2,8 C -8,1 C 31,3 km/h (5 Bft)
31.01.2008 21:50 4,0 C 92 % 990,5 hPa 0,0 l/m 34,3 km/h (5 Bft) W-SW 250 0 min 0 W/m 2,8 C -8,8 C 34,3 km/h (5 Bft)
31.01.2008 21:54 4,0 C 92 % 990,5 hPa 0,0 l/m 28,6 km/h (5 Bft) W-SW 240 0 min 0 W/m 2,8 C -7,4 C 28,6 km/h (5 Bft)
31.01.2008 21:57 4,1 C 92 % 990,5 hPa 0,0 l/m 28,8 km/h (5 Bft) W-SW 250 0 min 0 W/m 2,9 C -7,3 C 28,8 km/h (5 Bft)
31.01.2008 21:59 4,1 C 92 % 990,5 hPa 0,0 l/m 39,2 km/h (6 Bft) W-SW 250 0 min 0 W/m 2,9 C -9,7 C 39,2 km/h (6 Bft)
31.01.2008 22:02 4,2 C 91 % 990,5 hPa 0,0 l/m 36,0 km/h (5 Bft) W-SW 240 0 min 0 W/m 2,9 C -8,9 C 36,0 km/h (5 Bft)
31.01.2008 22:06 4,3 C 91 % 990,5 hPa 0,0 l/m 44,3 km/h (6 Bft) W-SW 250 0 min 0 W/m 3,0 C -10,3 C 44,3 km/h (6 Bft)
31.01.2008 22:09 4,3 C 90 % 990,5 hPa 0,0 l/m 41,7 km/h (6 Bft) W-SW 255 0 min 0 W/m 2,8 C -9,9 C 41,7 km/h (6 Bft)
31.01.2008 22:11 4,3 C 90 % 990,5 hPa 0,0 l/m 41,6 km/h (6 Bft) W-SW 250 0 min 0 W/m 2,8 C -9,8 C 41,6 km/h (6 Bft)
31.01.2008 22:14 4,4 C 88 % 990,5 hPa 0,0 l/m 49,9 km/h (7 Bft) W-SW 245 0 min 0 W/m 2,6 C -10,9 C 49,9 km/h (7 Bft)
31.01.2008 22:17 4,4 C 88 % 990,5 hPa 0,0 l/m 42,3 km/h (6 Bft) W-SW 250 0 min 0 W/m 2,6 C -9,8 C 42,3 km/h (6 Bft)
31.01.2008 22:20 4,5 C 86 % 990,5 hPa 0,0 l/m 47,9 km/h (6 Bft) W-SW 250 0 min 0 W/m 2,4 C -10,5 C 47,9 km/h (6 Bft)
31.01.2008 22:23 4,6 C 85 % 990,5 hPa 0,0 l/m 49,6 km/h (7 Bft) W-SW 250 0 min 0 W/m 2,3 C -10,6 C 49,6 km/h (7 Bft)
31.01.2008 22:26 4,7 C 83 % 990,5 hPa 0,0 l/m 50,1 km/h (7 Bft) W-SW 250 0 min 0 W/m 2,1 C -10,5 C 50,1 km/h (7 Bft)
31.01.2008 22:30 4,7 C 83 % 990,5 hPa 0,0 l/m 55,2 km/h (7 Bft) W-SW 255 0 min 0 W/m 2,1 C -11,0 C 55,2 km/h (7 Bft)
31.01.2008 22:33 4,6 C 82 % 990,5 hPa 0,0 l/m 53,9 km/h (7 Bft) W-SW 250 0 min 0 W/m 1,8 C -11,0 C 53,9 km/h (7 Bft)
31.01.2008 22:35 4,5 C 84 % 990,5 hPa 0,0 l/m 49,8 km/h (7 Bft) W-SW 255 0 min 0 W/m 2,0 C -10,7 C 49,8 km/h (7 Bft)
31.01.2008 22:38 4,3 C 86 % 990,5 hPa 0,0 l/m 52,3 km/h (7 Bft) W 260 0 min 0 W/m 2,2 C -11,3 C 52,3 km/h (7 Bft)
31.01.2008 22:41 4,3 C 88 % 990,5 hPa 0,0 l/m 40,5 km/h (6 Bft) W-SW 250 0 min 0 W/m 2,5 C -9,6 C 40,5 km/h (6 Bft)
31.01.2008 22:44 4,2 C 88 % 990,5 hPa 0,0 l/m 38,1 km/h (6 Bft) W-SW 250 0 min 0 W/m 2,4 C -9,3 C 38,1 km/h (6 Bft)
31.01.2008 22:47 4,2 C 88 % 990,5 hPa 0,0 l/m 41,3 km/h (6 Bft) W-SW 255 0 min 0 W/m 2,4 C -9,9 C 41,3 km/h (6 Bft)
31.01.2008 22:50 4,2 C 89 % 990,5 hPa 0,0 l/m 45,5 km/h (6 Bft) W-SW 255 0 min 0 W/m 2,6 C -10,6 C 45,5 km/h (6 Bft)
31.01.2008 22:54 4,2 C 89 % 990,5 hPa 0,0 l/m 43,6 km/h (6 Bft) W-SW 250 0 min 0 W/m 2,6 C -10,3 C 43,6 km/h (6 Bft)
31.01.2008 22:57 4,2 C 89 % 990,5 hPa 0,0 l/m 31,1 km/h (5 Bft) W-SW 245 0 min 0 W/m 2,6 C -7,8 C 31,1 km/h (5 Bft)
31.01.2008 22:59 4,0 C 89 % 990,5 hPa 0,0 l/m 31,5 km/h (5 Bft) W-SW 250 0 min 0 W/m 2,4 C -8,2 C 31,5 km/h (5 Bft)
31.01.2008 23:02 3,9 C 90 % 990,5 hPa 0,0 l/m 37,0 km/h (5 Bft) W-SW 250 0 min 0 W/m 2,4 C -9,6 C 37,0 km/h (5 Bft)
31.01.2008 23:06 3,9 C 90 % 990,5 hPa 0,0 l/m 24,7 km/h (4 Bft) W-SW 250 0 min 0 W/m 2,4 C -6,3 C 24,7 km/h (4 Bft)
31.01.2008 23:09 3,9 C 90 % 990,5 hPa 0,0 l/m 34,9 km/h (5 Bft) SW 235 0 min 0 W/m 2,4 C -9,1 C 34,9 km/h (5 Bft)
31.01.2008 23:11 3,9 C 90 % 990,5 hPa 0,0 l/m 26,3 km/h (4 Bft) SW 230 0 min 0 W/m 2,4 C -6,9 C 26,3 km/h (4 Bft)
31.01.2008 23:14 3,9 C 90 % 989,5 hPa 0,0 l/m 33,0 km/h (5 Bft) W-SW 250 0 min 0 W/m 2,4 C -8,7 C 33,0 km/h (5 Bft)
31.01.2008 23:17 3,9 C 91 % 989,5 hPa 0,0 l/m 29,6 km/h (5 Bft) SW 235 0 min 0 W/m 2,6 C -7,8 C 29,6 km/h (5 Bft)
31.01.2008 23:20 3,9 C 91 % 989,5 hPa 0,0 l/m 39,6 km/h (6 Bft) W-SW 245 0 min 0 W/m 2,6 C -10,1 C 39,6 km/h (6 Bft)
31.01.2008 23:23 3,9 C 91 % 989,5 hPa 0,0 l/m 31,0 km/h (5 Bft) W-SW 250 0 min 0 W/m 2,6 C -8,2 C 31,0 km/h (5 Bft)
31.01.2008 23:26 3,9 C 91 % 989,5 hPa 0,0 l/m 31,0 km/h (5 Bft) W-SW 250 0 min 0 W/m 2,6 C -8,2 C 31,0 km/h (5 Bft)
31.01.2008 23:30 3,9 C 91 % 989,5 hPa 0,0 l/m 25,7 km/h (4 Bft) W-SW 240 0 min 0 W/m 2,6 C -6,7 C 25,7 km/h (4 Bft)
31.01.2008 23:33 3,9 C 91 % 989,5 hPa 0,0 l/m 35,6 km/h (5 Bft) W-SW 250 0 min 0 W/m 2,6 C -9,3 C 35,6 km/h (5 Bft)
31.01.2008 23:35 3,9 C 92 % 989,5 hPa 0,0 l/m 29,1 km/h (5 Bft) W-SW 255 0 min 0 W/m 2,7 C -7,7 C 29,1 km/h (5 Bft)
31.01.2008 23:38 4,0 C 92 % 989,5 hPa 0,0 l/m 37,8 km/h (5 Bft) W-SW 245 0 min 0 W/m 2,8 C -9,6 C 37,8 km/h (5 Bft)
31.01.2008 23:41 4,1 C 92 % 989,5 hPa 0,0 l/m 29,5 km/h (5 Bft) SW 235 0 min 0 W/m 2,9 C -7,5 C 29,5 km/h (5 Bft)
31.01.2008 23:44 4,1 C 92 % 989,5 hPa 0,0 l/m 39,3 km/h (6 Bft) W-SW 250 0 min 0 W/m 2,9 C -9,7 C 39,3 km/h (6 Bft)
31.01.2008 23:47 4,2 C 92 % 989,5 hPa 0,0 l/m 36,4 km/h (5 Bft) SW 235 0 min 0 W/m 3,0 C -9,0 C 36,4 km/h (5 Bft)
31.01.2008 23:50 4,3 C 92 % 989,5 hPa 0,0 l/m 42,5 km/h (6 Bft) W-SW 255 0 min 0 W/m 3,1 C -10,0 C 42,5 km/h (6 Bft)
31.01.2008 23:54 4,3 C 92 % 989,5 hPa 0,0 l/m 37,9 km/h (6 Bft) W-SW 250 0 min 0 W/m 3,1 C -9,2 C 37,9 km/h (6 Bft)
31.01.2008 23:57 4,5 C 92 % 989,5 hPa 0,0 l/m 40,3 km/h (6 Bft) W-SW 245 0 min 0 W/m 3,3 C -9,3 C 40,3 km/h (6 Bft)
31.01.2008 23:59 4,7 C 91 % 989,5 hPa 0,0 l/m 44,2 km/h (6 Bft) W-SW 255 0 min 0 W/m 3,4 C -9,7 C 44,2 km/h (6 Bft)
_ Min-Zeit 06:35 15:35 23:14 - 04:38 - - - - 15:41 16:42 04:38
Minimum _ 1,9 C 76 % 989,5 hPa - 15,1 km/h (3 Bft) - - - - 0,2 C -14,0 C 15,1 km/h (3 Bft)
_ Max-Zeit 22:26 18:29 00:08 16:15 13:59 - - 00:03 00:03 23:59 00:36 13:59
Maximum _ 4,7 C 95 % 1019,5 hPa 0,3 l/m 59,9 km/h
SW (7 Bft)
- - 0 min 0 W/m 3,4 C -2,8 C 59,9 km/h
SW (7 Bft)
Durchschnitt _ 3,3 C 89 % 1005,1 hPa #2,4 l/m 34,7 km/h (5 Bft) W-SW - #0 min. 0 W/m 1,7 C -9,4 C 34,7 km/h (5 Bft)
copyright by Holger Just